Wetterdaten: Samstag, 02.09.2023
Datum Zeit Temp. Aussen Temp. o. S. Temp +5cm Feuchte Auss Luftdruck Regen Sonnenschein Regendauer Solar Windben Empfang
02.09.2023 00:00 17,2 C 16,1 C 13,3 C 97 % 1016,7 hPa 0,0 l/m 0 min 0 min 0 W/m 6,4 km/h (2 Bft) 97,87 %
02.09.2023 00:02 17,1 C 16,1 C 13,3 C 97 % 1016,7 hPa 0,0 l/m 0 min 0 min 0 W/m 3,2 km/h (1 Bft) 96,88 %
02.09.2023 00:04 17,1 C 16,1 C 13,3 C 97 % 1016,7 hPa 0,0 l/m 0 min 0 min 0 W/m 3,2 km/h (1 Bft) 96,00 %
02.09.2023 00:08 17,1 C 16,1 C 12,8 C 97 % 1016,8 hPa 0,0 l/m 0 min 0 min 0 W/m 6,4 km/h (2 Bft) 98,00 %
02.09.2023 00:10 17,1 C 16,1 C 13,3 C 97 % 1016,8 hPa 0,0 l/m 0 min 0 min 0 W/m 3,2 km/h (1 Bft) 97,87 %
02.09.2023 00:12 17,1 C 16,1 C 12,8 C 97 % 1016,8 hPa 0,0 l/m 0 min 0 min 0 W/m 6,4 km/h (2 Bft) 95,74 %
02.09.2023 00:14 17,0 C 16,1 C 12,8 C 97 % 1016,8 hPa 0,0 l/m 0 min 0 min 0 W/m 3,2 km/h (1 Bft) 97,87 %
02.09.2023 00:16 17,0 C 16,1 C 12,8 C 97 % 1016,8 hPa 0,0 l/m 0 min 0 min 0 W/m 3,2 km/h (1 Bft) 97,56 %
02.09.2023 00:18 17,0 C 16,1 C 13,3 C 97 % 1016,8 hPa 0,0 l/m 0 min 0 min 0 W/m 6,4 km/h (2 Bft) 97,83 %
02.09.2023 00:20 16,9 C 16,1 C 13,3 C 97 % 1016,8 hPa 0,0 l/m 0 min 0 min 0 W/m 3,2 km/h (1 Bft) 95,74 %
02.09.2023 00:22 16,9 C 16,1 C 13,3 C 97 % 1016,8 hPa 0,0 l/m 0 min 0 min 0 W/m 3,2 km/h (1 Bft) 95,74 %
02.09.2023 00:24 16,9 C 16,1 C 13,3 C 97 % 1016,8 hPa 0,0 l/m 0 min 0 min 0 W/m 6,4 km/h (2 Bft) 97,87 %
02.09.2023 00:26 16,9 C 16,1 C 12,8 C 97 % 1016,9 hPa 0,0 l/m 0 min 0 min 0 W/m 6,4 km/h (2 Bft) 97,87 %
02.09.2023 00:28 16,9 C 16,1 C 12,8 C 97 % 1016,9 hPa 0,0 l/m 0 min 0 min 0 W/m 3,2 km/h (1 Bft) 100,00 %
02.09.2023 00:30 16,8 C 16,1 C 12,8 C 97 % 1016,8 hPa 0,0 l/m 0 min 0 min 0 W/m 3,2 km/h (1 Bft) 100,00 %
02.09.2023 00:32 16,8 C 16,1 C 12,8 C 97 % 1016,9 hPa 0,0 l/m 0 min 0 min 0 W/m 3,2 km/h (1 Bft) 97,83 %
02.09.2023 00:34 16,8 C 16,1 C 12,8 C 97 % 1016,9 hPa 0,0 l/m 0 min 0 min 0 W/m 6,4 km/h (2 Bft) 100,00 %
02.09.2023 00:36 16,8 C 16,1 C 12,8 C 97 % 1016,9 hPa 0,0 l/m 0 min 0 min 0 W/m 3,2 km/h (1 Bft) 97,87 %
02.09.2023 00:38 16,8 C 15,6 C 12,8 C 97 % 1016,8 hPa 0,0 l/m 0 min 0 min 0 W/m 0,0 km/h (0 Bft) 100,00 %
02.09.2023 00:40 16,7 C 15,6 C 12,8 C 97 % 1016,9 hPa 0,0 l/m 0 min 0 min 0 W/m 6,4 km/h (2 Bft) 100,00 %
02.09.2023 00:42 16,7 C 15,6 C 12,8 C 97 % 1016,9 hPa 0,0 l/m 0 min 0 min 0 W/m 6,4 km/h (2 Bft) 100,00 %
02.09.2023 00:44 16,7 C 15,6 C 12,8 C 98 % 1016,9 hPa 0,0 l/m 0 min 0 min 0 W/m 6,4 km/h (2 Bft) 100,00 %
02.09.2023 00:46 16,7 C 15,6 C 12,8 C 97 % 1016,9 hPa 0,0 l/m 0 min 0 min 0 W/m 6,4 km/h (2 Bft) 100,00 %
02.09.2023 00:48 16,6 C 15,6 C 12,8 C 97 % 1017,0 hPa 0,0 l/m 0 min 0 min 0 W/m 6,4 km/h (2 Bft) 100,00 %
02.09.2023 00:50 16,6 C 15,6 C 12,8 C 97 % 1017,0 hPa 0,0 l/m 0 min 0 min 0 W/m 6,4 km/h (2 Bft) 100,00 %
02.09.2023 00:52 16,6 C 15,6 C 12,8 C 97 % 1017,0 hPa 0,0 l/m 0 min 0 min 0 W/m 3,2 km/h (1 Bft) 100,00 %
02.09.2023 00:54 16,6 C 15,6 C 12,8 C 97 % 1017,0 hPa 0,0 l/m 0 min 0 min 0 W/m 3,2 km/h (1 Bft) 97,87 %
02.09.2023 00:56 16,6 C 15,6 C 12,8 C 97 % 1017,0 hPa 0,0 l/m 0 min 0 min 0 W/m 12,9 km/h (3 Bft) 100,00 %
02.09.2023 00:58 16,6 C 15,6 C 12,8 C 97 % 1017,0 hPa 0,0 l/m 0 min 0 min 0 W/m 3,2 km/h (1 Bft) 100,00 %
02.09.2023 01:00 16,5 C 15,6 C 12,8 C 97 % 1016,9 hPa 0,0 l/m 0 min 0 min 0 W/m 6,4 km/h (2 Bft) 100,00 %
02.09.2023 01:02 16,5 C 15,6 C 12,8 C 97 % 1016,9 hPa 0,0 l/m 0 min 0 min 0 W/m 6,4 km/h (2 Bft) 100,00 %
02.09.2023 01:04 16,4 C 15,6 C 12,8 C 97 % 1016,9 hPa 0,0 l/m 0 min 0 min 0 W/m 3,2 km/h (1 Bft) 95,56 %
02.09.2023 01:06 16,4 C 15,6 C 12,8 C 97 % 1016,9 hPa 0,0 l/m 0 min 0 min 0 W/m 3,2 km/h (1 Bft) 97,87 %
02.09.2023 01:08 16,4 C 15,6 C 12,8 C 97 % 1016,9 hPa 0,0 l/m 0 min 0 min 0 W/m 3,2 km/h (1 Bft) 97,87 %
02.09.2023 01:10 16,4 C 15,6 C 12,8 C 97 % 1016,9 hPa 0,0 l/m 0 min 0 min 0 W/m 3,2 km/h (1 Bft) 97,87 %
02.09.2023 01:12 16,4 C 15,6 C 12,8 C 97 % 1016,9 hPa 0,0 l/m 0 min 0 min 0 W/m 6,4 km/h (2 Bft) 97,87 %
02.09.2023 01:14 16,4 C 15,6 C 12,8 C 97 % 1016,9 hPa 0,0 l/m 0 min 0 min 0 W/m 6,4 km/h (2 Bft) 97,83 %
02.09.2023 01:16 16,4 C 15,6 C 12,8 C 97 % 1016,9 hPa 0,0 l/m 0 min 0 min 0 W/m 3,2 km/h (1 Bft) 97,87 %
02.09.2023 01:18 16,3 C 15,6 C 12,8 C 97 % 1016,9 hPa 0,0 l/m 0 min 0 min 0 W/m 0,0 km/h (0 Bft) 93,62 %
02.09.2023 01:20 16,3 C 15,6 C 12,8 C 97 % 1017,0 hPa 0,0 l/m 0 min 0 min 0 W/m 3,2 km/h (1 Bft) 97,87 %
02.09.2023 01:22 16,3 C 15,6 C 12,8 C 97 % 1017,0 hPa 0,0 l/m 0 min 0 min 0 W/m 3,2 km/h (1 Bft) 97,87 %
02.09.2023 01:24 16,3 C 15,6 C 12,8 C 97 % 1017,1 hPa 0,0 l/m 0 min 0 min 0 W/m 3,2 km/h (1 Bft) 100,00 %
02.09.2023 01:26 16,3 C 15,0 C 12,8 C 97 % 1017,0 hPa 0,0 l/m 0 min 0 min 0 W/m 3,2 km/h (1 Bft) 97,87 %
02.09.2023 01:28 16,2 C 15,0 C 12,8 C 97 % 1017,1 hPa 0,0 l/m 0 min 0 min 0 W/m 3,2 km/h (1 Bft) 97,87 %
02.09.2023 01:30 16,2 C 15,0 C 12,8 C 97 % 1017,0 hPa 0,0 l/m 0 min 0 min 0 W/m 3,2 km/h (1 Bft) 95,65 %
02.09.2023 01:32 16,2 C 15,0 C 12,2 C 97 % 1017,1 hPa 0,0 l/m 0 min 0 min 0 W/m 3,2 km/h (1 Bft) 97,87 %
02.09.2023 01:34 16,2 C 15,0 C 12,2 C 97 % 1017,1 hPa 0,0 l/m 0 min 0 min 0 W/m 3,2 km/h (1 Bft) 97,87 %
02.09.2023 01:36 16,2 C 15,0 C 12,2 C 97 % 1017,1 hPa 0,0 l/m 0 min 0 min 0 W/m 3,2 km/h (1 Bft) 95,74 %
02.09.2023 01:38 16,1 C 15,0 C 12,2 C 97 % 1017,1 hPa 0,0 l/m 0 min 0 min 0 W/m 3,2 km/h (1 Bft) 95,74 %
02.09.2023 01:40 16,1 C 15,0 C 12,2 C 97 % 1017,1 hPa 0,0 l/m 0 min 0 min 0 W/m 3,2 km/h (1 Bft) 97,87 %
02.09.2023 01:42 16,1 C 15,0 C 12,2 C 97 % 1017,1 hPa 0,0 l/m 0 min 0 min 0 W/m 3,2 km/h (1 Bft) 95,65 %
02.09.2023 01:44 16,1 C 15,0 C 12,2 C 97 % 1017,1 hPa 0,0 l/m 0 min 0 min 0 W/m 3,2 km/h (1 Bft) 95,74 %
02.09.2023 01:46 16,1 C 15,0 C 12,2 C 97 % 1017,1 hPa 0,0 l/m 0 min 0 min 0 W/m 3,2 km/h (1 Bft) 93,62 %
02.09.2023 01:48 16,1 C 15,0 C 12,2 C 97 % 1017,1 hPa 0,0 l/m 0 min 0 min 0 W/m 6,4 km/h (2 Bft) 93,62 %
02.09.2023 01:50 16,0 C 15,0 C 12,2 C 97 % 1017,1 hPa 0,0 l/m 0 min 0 min 0 W/m 6,4 km/h (2 Bft) 95,74 %
02.09.2023 01:52 15,9 C 15,0 C 12,2 C 97 % 1017,2 hPa 0,0 l/m 0 min 0 min 0 W/m 6,4 km/h (2 Bft) 93,62 %
02.09.2023 01:54 15,9 C 15,0 C 12,2 C 97 % 1017,2 hPa 0,0 l/m 0 min 0 min 0 W/m 12,9 km/h (3 Bft) 93,62 %
02.09.2023 01:56 15,9 C 15,0 C 12,2 C 97 % 1017,2 hPa 0,0 l/m 0 min 0 min 0 W/m 6,4 km/h (2 Bft) 95,65 %
02.09.2023 01:58 15,9 C 15,0 C 12,2 C 97 % 1017,2 hPa 0,0 l/m 0 min 0 min 0 W/m 3,2 km/h (1 Bft) 95,74 %
02.09.2023 02:00 15,9 C 15,0 C 12,2 C 97 % 1017,2 hPa 0,0 l/m 0 min 0 min 0 W/m 3,2 km/h (1 Bft) 95,74 %
02.09.2023 02:02 15,9 C 15,0 C 12,2 C 97 % 1017,2 hPa 0,0 l/m 0 min 0 min 0 W/m 3,2 km/h (1 Bft) 95,74 %
02.09.2023 02:04 15,8 C 15,0 C 12,2 C 97 % 1017,2 hPa 0,0 l/m 0 min 0 min 0 W/m 3,2 km/h (1 Bft) 95,92 %
02.09.2023 02:06 15,8 C 15,0 C 12,2 C 97 % 1017,2 hPa 0,0 l/m 0 min 0 min 0 W/m 3,2 km/h (1 Bft) 93,62 %
02.09.2023 02:08 15,8 C 15,0 C 12,2 C 97 % 1017,2 hPa 0,0 l/m 0 min 0 min 0 W/m 6,4 km/h (2 Bft) 95,65 %
02.09.2023 02:10 15,8 C 15,0 C 12,2 C 97 % 1017,1 hPa 0,0 l/m 0 min 0 min 0 W/m 6,4 km/h (2 Bft) 95,74 %
02.09.2023 02:17 15,8 C 15,0 C 12,2 C 98 % 1017,0 hPa 0,0 l/m 0 min 0 min 0 W/m 6,4 km/h (2 Bft) 98,57 %
02.09.2023 02:18 15,8 C 15,0 C 12,2 C 98 % 1017,0 hPa 0,0 l/m 0 min 0 min 0 W/m 3,2 km/h (1 Bft) 91,67 %
02.09.2023 02:20 15,8 C 15,0 C 12,2 C 98 % 1017,0 hPa 0,0 l/m 0 min 0 min 0 W/m 3,2 km/h (1 Bft) 97,83 %
02.09.2023 02:22 15,8 C 15,0 C 12,2 C 98 % 1017,0 hPa 0,0 l/m 0 min 0 min 0 W/m 6,4 km/h (2 Bft) 97,87 %
02.09.2023 02:24 15,8 C 15,0 C 12,2 C 98 % 1017,1 hPa 0,0 l/m 0 min 0 min 0 W/m 6,4 km/h (2 Bft) 97,87 %
02.09.2023 02:26 15,8 C 15,0 C 12,2 C 98 % 1017,1 hPa 0,0 l/m 0 min 0 min 0 W/m 0,0 km/h (0 Bft) 97,62 %
02.09.2023 02:28 15,8 C 15,0 C 12,2 C 98 % 1017,1 hPa 0,0 l/m 0 min 0 min 0 W/m 3,2 km/h (1 Bft) 97,87 %
02.09.2023 02:30 15,8 C 15,0 C 12,2 C 98 % 1017,2 hPa 0,0 l/m 0 min 0 min 0 W/m 3,2 km/h (1 Bft) 97,87 %
02.09.2023 02:32 15,8 C 15,0 C 12,2 C 98 % 1017,2 hPa 0,0 l/m 0 min 0 min 0 W/m 0,0 km/h (0 Bft) 97,87 %
02.09.2023 02:34 15,8 C 15,0 C 12,2 C 98 % 1017,2 hPa 0,0 l/m 0 min 0 min 0 W/m 0,0 km/h (0 Bft) 100,00 %
02.09.2023 02:36 15,8 C 15,0 C 12,2 C 98 % 1017,2 hPa 0,0 l/m 0 min 0 min 0 W/m 0,0 km/h (0 Bft) 97,87 %
02.09.2023 02:38 15,8 C 15,0 C 12,2 C 98 % 1017,2 hPa 0,0 l/m 0 min 0 min 0 W/m 0,0 km/h (0 Bft) 100,00 %
02.09.2023 02:40 15,8 C 15,0 C 12,2 C 98 % 1017,3 hPa 0,0 l/m 0 min 0 min 0 W/m 6,4 km/h (2 Bft) 97,87 %
02.09.2023 02:42 15,8 C 15,0 C 12,2 C 98 % 1017,3 hPa 0,0 l/m 0 min 0 min 0 W/m 0,0 km/h (0 Bft) 100,00 %
02.09.2023 02:44 15,8 C 15,0 C 12,2 C 98 % 1017,3 hPa 0,0 l/m 0 min 0 min 0 W/m 0,0 km/h (0 Bft) 100,00 %
02.09.2023 02:46 15,8 C 15,0 C 12,2 C 98 % 1017,3 hPa 0,0 l/m 0 min 0 min 0 W/m 0,0 km/h (0 Bft) 100,00 %
02.09.2023 02:48 15,8 C 15,0 C 12,2 C 98 % 1017,3 hPa 0,0 l/m 0 min 0 min 0 W/m 0,0 km/h (0 Bft) 100,00 %
02.09.2023 02:50 15,8 C 15,0 C 12,2 C 98 % 1017,3 hPa 0,0 l/m 0 min 0 min 0 W/m 0,0 km/h (0 Bft) 97,87 %
02.09.2023 02:52 15,8 C 15,0 C 12,2 C 98 % 1017,3 hPa 0,0 l/m 0 min 0 min 0 W/m 0,0 km/h (0 Bft) 100,00 %
02.09.2023 02:54 15,8 C 15,0 C 12,2 C 98 % 1017,2 hPa 0,0 l/m 0 min 0 min 0 W/m 0,0 km/h (0 Bft) 98,00 %
02.09.2023 02:56 15,8 C 15,0 C 12,2 C 98 % 1017,3 hPa 0,0 l/m 0 min 0 min 0 W/m 0,0 km/h (0 Bft) 97,83 %
02.09.2023 02:58 15,8 C 15,0 C 12,2 C 98 % 1017,3 hPa 0,0 l/m 0 min 0 min 0 W/m 0,0 km/h (0 Bft) 97,87 %
02.09.2023 03:00 15,8 C 15,0 C 12,2 C 98 % 1017,3 hPa 0,0 l/m 0 min 0 min 0 W/m 0,0 km/h (0 Bft) 97,87 %
02.09.2023 03:02 15,8 C 15,0 C 12,2 C 98 % 1017,4 hPa 0,0 l/m 0 min 0 min 0 W/m 0,0 km/h (0 Bft) 97,87 %
02.09.2023 03:04 15,8 C 15,0 C 12,2 C 98 % 1017,4 hPa 0,0 l/m 0 min 0 min 0 W/m 0,0 km/h (0 Bft) 97,56 %
02.09.2023 03:06 15,8 C 15,0 C 12,2 C 98 % 1017,4 hPa 0,0 l/m 0 min 0 min 0 W/m 0,0 km/h (0 Bft) 98,44 %
02.09.2023 03:08 15,8 C 15,0 C 12,2 C 98 % 1017,4 hPa 0,0 l/m 0 min 0 min 0 W/m 0,0 km/h (0 Bft) 96,67 %
02.09.2023 03:10 15,8 C 15,0 C 12,2 C 98 % 1017,4 hPa 0,0 l/m 0 min 0 min 0 W/m 0,0 km/h (0 Bft) 97,87 %
02.09.2023 03:12 15,8 C 15,0 C 12,2 C 98 % 1017,4 hPa 0,0 l/m 0 min 0 min 0 W/m 0,0 km/h (0 Bft) 100,00 %
02.09.2023 03:14 15,8 C 15,0 C 12,2 C 98 % 1017,3 hPa 0,0 l/m 0 min 0 min 0 W/m 0,0 km/h (0 Bft) 100,00 %
02.09.2023 03:16 15,8 C 15,0 C 12,2 C 98 % 1017,4 hPa 0,0 l/m 0 min 0 min 0 W/m 3,2 km/h (1 Bft) 100,00 %
02.09.2023 03:18 15,8 C 15,0 C 12,2 C 98 % 1017,4 hPa 0,0 l/m 0 min 0 min 0 W/m 6,4 km/h (2 Bft) 100,00 %
02.09.2023 03:20 15,8 C 15,0 C 12,2 C 98 % 1017,4 hPa 0,0 l/m 0 min 0 min 0 W/m 0,0 km/h (0 Bft) 100,00 %
02.09.2023 03:22 15,8 C 15,0 C 12,2 C 98 % 1017,4 hPa 0,0 l/m 0 min 0 min 0 W/m 0,0 km/h (0 Bft) 100,00 %
02.09.2023 03:24 15,8 C 15,0 C 12,2 C 98 % 1017,4 hPa 0,0 l/m 0 min 0 min 0 W/m 3,2 km/h (1 Bft) 100,00 %
02.09.2023 03:26 15,8 C 15,0 C 12,2 C 98 % 1017,4 hPa 0,0 l/m 0 min 0 min 0 W/m 3,2 km/h (1 Bft) 100,00 %
02.09.2023 03:28 15,8 C 15,0 C 12,2 C 98 % 1017,3 hPa 0,0 l/m 0 min 0 min 0 W/m 3,2 km/h (1 Bft) 100,00 %
02.09.2023 03:30 15,8 C 15,0 C 12,2 C 98 % 1017,4 hPa 0,0 l/m 0 min 0 min 0 W/m 6,4 km/h (2 Bft) 95,74 %
02.09.2023 03:32 15,7 C 15,0 C 12,2 C 98 % 1017,4 hPa 0,0 l/m 0 min 0 min 0 W/m 3,2 km/h (1 Bft) 97,87 %
02.09.2023 03:34 15,7 C 15,0 C 12,2 C 98 % 1017,4 hPa 0,0 l/m 0 min 0 min 0 W/m 0,0 km/h (0 Bft) 100,00 %
02.09.2023 03:36 15,7 C 15,0 C 12,2 C 98 % 1017,4 hPa 0,0 l/m 0 min 0 min 0 W/m 3,2 km/h (1 Bft) 100,00 %
02.09.2023 03:38 15,7 C 15,0 C 12,2 C 98 % 1017,4 hPa 0,0 l/m 0 min 0 min 0 W/m 3,2 km/h (1 Bft) 100,00 %
02.09.2023 03:40 15,7 C 15,0 C 12,2 C 98 % 1017,4 hPa 0,0 l/m 0 min 0 min 0 W/m 3,2 km/h (1 Bft) 95,65 %
02.09.2023 03:42 15,7 C 15,0 C 12,2 C 98 % 1017,4 hPa 0,0 l/m 0 min 0 min 0 W/m 3,2 km/h (1 Bft) 95,74 %
02.09.2023 03:44 15,7 C 15,0 C 12,2 C 98 % 1017,5 hPa 0,0 l/m 0 min 0 min 0 W/m 6,4 km/h (2 Bft) 93,62 %
02.09.2023 03:46 15,7 C 15,0 C 12,2 C 98 % 1017,4 hPa 0,0 l/m 0 min 0 min 0 W/m 3,2 km/h (1 Bft) 95,74 %
02.09.2023 03:48 15,7 C 15,0 C 12,2 C 98 % 1017,4 hPa 0,0 l/m 0 min 0 min 0 W/m 6,4 km/h (2 Bft) 95,74 %
02.09.2023 03:50 15,7 C 15,0 C 12,2 C 98 % 1017,5 hPa 0,0 l/m 0 min 0 min 0 W/m 6,4 km/h (2 Bft) 95,74 %
02.09.2023 03:52 15,7 C 15,0 C 12,2 C 98 % 1017,5 hPa 0,0 l/m 0 min 0 min 0 W/m 6,4 km/h (2 Bft) 93,62 %
02.09.2023 03:54 15,7 C 15,0 C 12,2 C 98 % 1017,5 hPa 0,0 l/m 0 min 0 min 0 W/m 3,2 km/h (1 Bft) 95,65 %
02.09.2023 03:56 15,7 C 15,0 C 12,2 C 98 % 1017,5 hPa 0,0 l/m 0 min 0 min 0 W/m 3,2 km/h (1 Bft) 94,64 %
02.09.2023 03:58 15,7 C 15,0 C 12,2 C 98 % 1017,5 hPa 0,0 l/m 0 min 0 min 0 W/m 3,2 km/h (1 Bft) 95,74 %
02.09.2023 04:00 15,7 C 15,0 C 12,2 C 98 % 1017,5 hPa 0,0 l/m 0 min 0 min 0 W/m 3,2 km/h (1 Bft) 95,74 %
02.09.2023 04:02 15,7 C 15,0 C 12,2 C 98 % 1017,5 hPa 0,0 l/m 0 min 0 min 0 W/m 6,4 km/h (2 Bft) 93,48 %
02.09.2023 04:04 15,7 C 15,0 C 12,2 C 98 % 1017,6 hPa 0,0 l/m 0 min 0 min 0 W/m 3,2 km/h (1 Bft) 97,67 %
02.09.2023 04:06 15,6 C 15,0 C 12,2 C 98 % 1017,6 hPa 0,0 l/m 0 min 0 min 0 W/m 3,2 km/h (1 Bft) 93,48 %
02.09.2023 04:08 15,6 C 15,0 C 12,2 C 98 % 1017,6 hPa 0,0 l/m 0 min 0 min 0 W/m 3,2 km/h (1 Bft) 95,74 %
02.09.2023 04:10 15,6 C 15,0 C 12,2 C 98 % 1017,6 hPa 0,0 l/m 0 min 0 min 0 W/m 3,2 km/h (1 Bft) 95,74 %
02.09.2023 04:12 15,6 C 15,0 C 12,2 C 98 % 1017,6 hPa 0,0 l/m 0 min 0 min 0 W/m 3,2 km/h (1 Bft) 97,87 %
02.09.2023 04:14 15,6 C 14,4 C 12,2 C 98 % 1017,6 hPa 0,0 l/m 0 min 0 min 0 W/m 3,2 km/h (1 Bft) 97,87 %
02.09.2023 04:16 15,6 C 14,4 C 12,2 C 98 % 1017,6 hPa 0,0 l/m 0 min 0 min 0 W/m 3,2 km/h (1 Bft) 97,87 %
02.09.2023 04:18 15,6 C 14,4 C 12,2 C 98 % 1017,5 hPa 0,0 l/m 0 min 0 min 0 W/m 3,2 km/h (1 Bft) 95,74 %
02.09.2023 04:20 15,6 C 14,4 C 12,2 C 98 % 1017,6 hPa 0,0 l/m 0 min 0 min 0 W/m 6,4 km/h (2 Bft) 97,83 %
02.09.2023 04:22 15,6 C 14,4 C 12,2 C 98 % 1017,6 hPa 0,0 l/m 0 min 0 min 0 W/m 6,4 km/h (2 Bft) 97,87 %
02.09.2023 04:24 15,6 C 14,4 C 12,2 C 98 % 1017,5 hPa 0,0 l/m 0 min 0 min 0 W/m 3,2 km/h (1 Bft) 97,87 %
02.09.2023 04:26 15,6 C 14,4 C 12,2 C 98 % 1017,6 hPa 0,0 l/m 0 min 0 min 0 W/m 3,2 km/h (1 Bft) 97,87 %
02.09.2023 04:28 15,5 C 14,4 C 12,2 C 98 % 1017,6 hPa 0,0 l/m 0 min 0 min 0 W/m 6,4 km/h (2 Bft) 100,00 %
02.09.2023 04:30 15,5 C 14,4 C 12,2 C 98 % 1017,6 hPa 0,0 l/m 0 min 0 min 0 W/m 3,2 km/h (1 Bft) 97,87 %
02.09.2023 04:32 15,5 C 14,4 C 12,2 C 98 % 1017,6 hPa 0,0 l/m 0 min 0 min 0 W/m 3,2 km/h (1 Bft) 100,00 %
02.09.2023 04:34 15,5 C 14,4 C 12,2 C 98 % 1017,7 hPa 0,0 l/m 0 min 0 min 0 W/m 6,4 km/h (2 Bft) 97,83 %
02.09.2023 04:36 15,5 C 14,4 C 12,2 C 98 % 1017,7 hPa 0,0 l/m 0 min 0 min 0 W/m 6,4 km/h (2 Bft) 100,00 %
02.09.2023 04:38 15,4 C 14,4 C 12,2 C 98 % 1017,7 hPa 0,0 l/m 0 min 0 min 0 W/m 3,2 km/h (1 Bft) 97,87 %
02.09.2023 04:40 15,4 C 14,4 C 11,7 C 98 % 1017,6 hPa 0,0 l/m 0 min 0 min 0 W/m 0,0 km/h (0 Bft) 97,87 %
02.09.2023 04:42 15,4 C 14,4 C 11,7 C 98 % 1017,7 hPa 0,0 l/m 0 min 0 min 0 W/m 0,0 km/h (0 Bft) 95,74 %
02.09.2023 04:44 15,4 C 14,4 C 12,2 C 98 % 1017,7 hPa 0,0 l/m 0 min 0 min 0 W/m 0,0 km/h (0 Bft) 95,74 %
02.09.2023 04:46 15,4 C 14,4 C 11,7 C 98 % 1017,6 hPa 0,0 l/m 0 min 0 min 0 W/m 6,4 km/h (2 Bft) 97,87 %
02.09.2023 04:48 15,4 C 14,4 C 11,7 C 98 % 1017,7 hPa 0,0 l/m 0 min 0 min 0 W/m 3,2 km/h (1 Bft) 97,83 %
02.09.2023 04:50 15,4 C 14,4 C 11,7 C 98 % 1017,7 hPa 0,0 l/m 0 min 0 min 0 W/m 3,2 km/h (1 Bft) 95,74 %
02.09.2023 04:52 15,4 C 14,4 C 11,7 C 98 % 1017,8 hPa 0,0 l/m 0 min 0 min 0 W/m 3,2 km/h (1 Bft) 97,87 %
02.09.2023 04:54 15,4 C 14,4 C 11,7 C 98 % 1017,8 hPa 0,0 l/m 0 min 0 min 0 W/m 3,2 km/h (1 Bft) 97,87 %
02.09.2023 04:56 15,4 C 14,4 C 11,7 C 98 % 1017,8 hPa 0,0 l/m 0 min 0 min 0 W/m 3,2 km/h (1 Bft) 97,87 %
02.09.2023 04:58 15,4 C 14,4 C 11,7 C 98 % 1017,9 hPa 0,0 l/m 0 min 0 min 0 W/m 3,2 km/h (1 Bft) 97,87 %
02.09.2023 05:00 15,3 C 14,4 C 11,7 C 98 % 1017,9 hPa 0,0 l/m 0 min 0 min 0 W/m 3,2 km/h (1 Bft) 97,87 %
02.09.2023 05:02 15,3 C 14,4 C 11,7 C 98 % 1017,9 hPa 0,0 l/m 0 min 0 min 0 W/m 3,2 km/h (1 Bft) 97,83 %
02.09.2023 05:04 15,3 C 14,4 C 11,7 C 98 % 1017,9 hPa 0,0 l/m 0 min 0 min 0 W/m 3,2 km/h (1 Bft) 96,00 %
02.09.2023 05:06 15,3 C 14,4 C 11,7 C 98 % 1017,9 hPa 0,0 l/m 0 min 0 min 0 W/m 3,2 km/h (1 Bft) 95,74 %
02.09.2023 05:08 15,3 C 14,4 C 11,7 C 98 % 1017,8 hPa 0,0 l/m 0 min 0 min 0 W/m 3,2 km/h (1 Bft) 97,87 %
02.09.2023 05:10 15,3 C 14,4 C 11,7 C 98 % 1017,8 hPa 0,0 l/m 0 min 0 min 0 W/m 3,2 km/h (1 Bft) 97,87 %
02.09.2023 05:12 15,3 C 14,4 C 11,7 C 98 % 1017,8 hPa 0,0 l/m 0 min 0 min 0 W/m 6,4 km/h (2 Bft) 97,87 %
02.09.2023 05:14 15,3 C 14,4 C 11,7 C 98 % 1017,8 hPa 0,0 l/m 0 min 0 min 0 W/m 3,2 km/h (1 Bft) 95,65 %
02.09.2023 05:16 15,3 C 14,4 C 11,7 C 98 % 1017,9 hPa 0,0 l/m 0 min 0 min 0 W/m 3,2 km/h (1 Bft) 97,87 %
02.09.2023 05:18 15,3 C 14,4 C 11,7 C 98 % 1017,9 hPa 0,0 l/m 0 min 0 min 0 W/m 3,2 km/h (1 Bft) 97,87 %
02.09.2023 05:20 15,3 C 14,4 C 11,7 C 98 % 1017,9 hPa 0,0 l/m 0 min 0 min 0 W/m 6,4 km/h (2 Bft) 95,74 %
02.09.2023 05:22 15,2 C 14,4 C 11,7 C 98 % 1017,9 hPa 0,0 l/m 0 min 0 min 0 W/m 12,9 km/h (3 Bft) 95,74 %
02.09.2023 05:24 15,2 C 14,4 C 11,7 C 98 % 1017,9 hPa 0,0 l/m 0 min 0 min 0 W/m 3,2 km/h (1 Bft) 95,74 %
02.09.2023 05:26 15,2 C 14,4 C 11,7 C 98 % 1018,0 hPa 0,0 l/m 0 min 0 min 0 W/m 6,4 km/h (2 Bft) 97,87 %
02.09.2023 05:28 15,2 C 14,4 C 11,7 C 98 % 1018,0 hPa 0,0 l/m 0 min 0 min 0 W/m 3,2 km/h (1 Bft) 100,00 %
02.09.2023 05:30 15,2 C 14,4 C 11,7 C 98 % 1017,9 hPa 0,0 l/m 0 min 0 min 0 W/m 3,2 km/h (1 Bft) 95,65 %
02.09.2023 05:32 15,1 C 14,4 C 11,7 C 98 % 1017,9 hPa 0,0 l/m 0 min 0 min 0 W/m 6,4 km/h (2 Bft) 97,87 %
02.09.2023 05:34 15,1 C 14,4 C 11,7 C 98 % 1017,9 hPa 0,0 l/m 0 min 0 min 0 W/m 12,9 km/h (3 Bft) 97,87 %
02.09.2023 05:36 15,1 C 14,4 C 11,7 C 98 % 1017,8 hPa 0,0 l/m 0 min 0 min 0 W/m 6,4 km/h (2 Bft) 97,87 %
02.09.2023 05:38 15,1 C 14,4 C 11,7 C 98 % 1017,9 hPa 0,0 l/m 0 min 0 min 0 W/m 3,2 km/h (1 Bft) 97,87 %
02.09.2023 05:40 15,1 C 14,4 C 11,7 C 98 % 1017,8 hPa 0,0 l/m 0 min 0 min 0 W/m 16,1 km/h (3 Bft) 95,74 %
02.09.2023 05:42 15,1 C 14,4 C 11,7 C 98 % 1017,8 hPa 0,0 l/m 0 min 0 min 0 W/m 12,9 km/h (3 Bft) 95,65 %
02.09.2023 05:44 15,1 C 13,9 C 11,7 C 98 % 1017,8 hPa 0,0 l/m 0 min 0 min 0 W/m 6,4 km/h (2 Bft) 97,87 %
02.09.2023 05:46 15,1 C 13,9 C 11,7 C 98 % 1017,8 hPa 0,0 l/m 0 min 0 min 0 W/m 3,2 km/h (1 Bft) 95,74 %
02.09.2023 05:48 15,0 C 13,9 C 11,7 C 98 % 1017,8 hPa 0,0 l/m 0 min 0 min 0 W/m 6,4 km/h (2 Bft) 97,87 %
02.09.2023 05:50 15,0 C 13,9 C 11,7 C 98 % 1017,8 hPa 0,0 l/m 0 min 0 min 0 W/m 6,4 km/h (2 Bft) 95,74 %
02.09.2023 05:52 15,0 C 13,9 C 11,7 C 98 % 1017,8 hPa 0,0 l/m 0 min 0 min 0 W/m 6,4 km/h (2 Bft) 97,87 %
02.09.2023 05:54 14,9 C 13,9 C 11,7 C 98 % 1017,8 hPa 0,0 l/m 0 min 0 min 0 W/m 3,2 km/h (1 Bft) 97,87 %
02.09.2023 05:56 14,9 C 13,9 C 11,7 C 98 % 1017,9 hPa 0,0 l/m 0 min 0 min 0 W/m 3,2 km/h (1 Bft) 97,87 %
02.09.2023 05:58 14,9 C 13,9 C 11,7 C 98 % 1017,9 hPa 0,0 l/m 0 min 0 min 0 W/m 6,4 km/h (2 Bft) 97,83 %
02.09.2023 06:00 14,9 C 13,9 C 11,1 C 98 % 1017,9 hPa 0,0 l/m 0 min 0 min 0 W/m 6,4 km/h (2 Bft) 95,74 %
02.09.2023 06:02 14,9 C 13,9 C 11,1 C 98 % 1017,9 hPa 0,0 l/m 0 min 0 min 0 W/m 3,2 km/h (1 Bft) 95,74 %
02.09.2023 06:04 14,8 C 13,9 C 11,1 C 98 % 1017,9 hPa 0,0 l/m 0 min 0 min 0 W/m 6,4 km/h (2 Bft) 97,96 %
02.09.2023 06:08 14,8 C 13,9 C 11,1 C 98 % 1017,9 hPa 0,0 l/m 0 min 0 min 0 W/m 3,2 km/h (1 Bft) 97,56 %
02.09.2023 06:10 14,8 C 13,9 C 11,1 C 98 % 1017,9 hPa 0,0 l/m 0 min 0 min 0 W/m 3,2 km/h (1 Bft) 100,00 %
02.09.2023 06:12 14,8 C 13,9 C 11,1 C 98 % 1017,9 hPa 0,0 l/m 0 min 0 min 0 W/m 6,4 km/h (2 Bft) 95,74 %
02.09.2023 06:14 14,8 C 13,9 C 11,1 C 98 % 1017,9 hPa 0,0 l/m 0 min 0 min 0 W/m 3,2 km/h (1 Bft) 100,00 %
02.09.2023 06:16 14,8 C 13,9 C 11,1 C 98 % 1017,9 hPa 0,0 l/m 0 min 0 min 0 W/m 6,4 km/h (2 Bft) 100,00 %
02.09.2023 06:18 14,7 C 13,9 C 11,1 C 98 % 1017,9 hPa 0,0 l/m 0 min 0 min 0 W/m 6,4 km/h (2 Bft) 97,87 %
02.09.2023 06:20 14,7 C 13,9 C 11,1 C 98 % 1017,9 hPa 0,0 l/m 0 min 0 min 0 W/m 3,2 km/h (1 Bft) 97,87 %
02.09.2023 06:22 14,7 C 13,9 C 11,1 C 98 % 1017,9 hPa 0,0 l/m 0 min 0 min 0 W/m 3,2 km/h (1 Bft) 97,87 %
02.09.2023 06:24 14,7 C 13,9 C 11,1 C 98 % 1017,9 hPa 0,0 l/m 0 min 0 min 0 W/m 3,2 km/h (1 Bft) 95,74 %
02.09.2023 06:26 14,7 C 13,9 C 11,1 C 98 % 1017,9 hPa 0,0 l/m 0 min 0 min 0 W/m 3,2 km/h (1 Bft) 96,30 %
02.09.2023 06:28 14,7 C 13,9 C 11,1 C 99 % 1018,0 hPa 0,0 l/m 0 min 0 min 0 W/m 9,7 km/h (2 Bft) 98,00 %
02.09.2023 06:30 14,7 C 13,9 C 11,1 C 99 % 1017,9 hPa 0,0 l/m 0 min 0 min 0 W/m 6,4 km/h (2 Bft) 97,92 %
02.09.2023 06:32 14,7 C 13,9 C 11,1 C 98 % 1018,0 hPa 0,0 l/m 0 min 0 min 0 W/m 6,4 km/h (2 Bft) 97,14 %
02.09.2023 06:34 14,6 C 13,9 C 11,1 C 98 % 1018,0 hPa 0,0 l/m 0 min 0 min 0 W/m 3,2 km/h (1 Bft) 98,18 %
02.09.2023 06:36 14,6 C 13,9 C 11,1 C 98 % 1018,0 hPa 0,0 l/m 0 min 0 min 0 W/m 3,2 km/h (1 Bft) 97,87 %
02.09.2023 06:38 14,6 C 13,9 C 11,1 C 98 % 1018,1 hPa 0,0 l/m 0 min 0 min 0 W/m 3,2 km/h (1 Bft) 95,92 %
02.09.2023 06:40 14,6 C 13,9 C 11,1 C 98 % 1018,2 hPa 0,0 l/m 0 min 0 min 0 W/m 3,2 km/h (1 Bft) 95,83 %
02.09.2023 06:42 14,6 C 13,9 C 11,1 C 98 % 1018,2 hPa 0,0 l/m 0 min 0 min 0 W/m 3,2 km/h (1 Bft) 97,87 %
02.09.2023 06:44 14,6 C 13,9 C 11,1 C 98 % 1018,2 hPa 0,0 l/m 0 min 0 min 0 W/m 3,2 km/h (1 Bft) 97,87 %
02.09.2023 06:46 14,6 C 13,9 C 11,1 C 98 % 1018,2 hPa 0,0 l/m 0 min 0 min 0 W/m 3,2 km/h (1 Bft) 95,74 %
02.09.2023 06:48 14,6 C 13,9 C 11,1 C 98 % 1018,2 hPa 0,0 l/m 0 min 0 min 0 W/m 0,0 km/h (0 Bft) 93,62 %
02.09.2023 06:50 14,6 C 13,9 C 11,1 C 98 % 1018,2 hPa 0,0 l/m 0 min 0 min 0 W/m 6,4 km/h (2 Bft) 97,87 %
02.09.2023 06:52 14,6 C 13,9 C 11,1 C 98 % 1018,2 hPa 0,0 l/m 0 min 0 min 0 W/m 6,4 km/h (2 Bft) 97,83 %
02.09.2023 06:54 14,5 C 13,9 C 11,1 C 98 % 1018,3 hPa 0,0 l/m 0 min 0 min 0 W/m 3,2 km/h (1 Bft) 97,87 %
02.09.2023 06:56 14,5 C 13,9 C 11,1 C 98 % 1018,3 hPa 0,0 l/m 0 min 0 min 4 W/m 3,2 km/h (1 Bft) 97,87 %
02.09.2023 06:58 14,5 C 13,9 C 11,1 C 98 % 1018,3 hPa 0,0 l/m 0 min 0 min 5 W/m 0,0 km/h (0 Bft) 95,74 %
02.09.2023 07:00 14,5 C 13,9 C 11,1 C 98 % 1018,3 hPa 0,0 l/m 0 min 0 min 7 W/m 0,0 km/h (0 Bft) 100,00 %
02.09.2023 07:02 14,5 C 13,9 C 11,1 C 98 % 1018,3 hPa 0,0 l/m 0 min 0 min 8 W/m 0,0 km/h (0 Bft) 100,00 %
02.09.2023 07:04 14,5 C 13,9 C 11,1 C 98 % 1018,4 hPa 0,0 l/m 0 min 0 min 9 W/m 0,0 km/h (0 Bft) 100,00 %
02.09.2023 07:06 14,4 C 13,9 C 11,1 C 98 % 1018,4 hPa 0,0 l/m 0 min 0 min 11 W/m 0,0 km/h (0 Bft) 100,00 %
02.09.2023 07:08 14,4 C 13,9 C 11,1 C 99 % 1018,3 hPa 0,0 l/m 0 min 0 min 12 W/m 0,0 km/h (0 Bft) 100,00 %
02.09.2023 07:10 14,4 C 13,9 C 11,1 C 99 % 1018,3 hPa 0,0 l/m 0 min 0 min 14 W/m 3,2 km/h (1 Bft) 97,14 %
02.09.2023 07:12 14,5 C 13,9 C 11,1 C 99 % 1018,3 hPa 0,0 l/m 0 min 0 min 16 W/m 3,2 km/h (1 Bft) 97,87 %
02.09.2023 07:14 14,5 C 13,9 C 11,1 C 99 % 1018,3 hPa 0,0 l/m 0 min 0 min 18 W/m 6,4 km/h (2 Bft) 100,00 %
02.09.2023 07:16 14,5 C 13,9 C 11,1 C 99 % 1018,3 hPa 0,0 l/m 0 min 0 min 18 W/m 3,2 km/h (1 Bft) 97,87 %
02.09.2023 07:18 14,5 C 13,9 C 11,1 C 99 % 1018,3 hPa 0,0 l/m 0 min 0 min 19 W/m 6,4 km/h (2 Bft) 100,00 %
02.09.2023 07:20 14,5 C 13,9 C 11,1 C 99 % 1018,3 hPa 0,0 l/m 0 min 0 min 23 W/m 6,4 km/h (2 Bft) 97,87 %
02.09.2023 07:22 14,6 C 13,9 C 11,1 C 99 % 1018,3 hPa 0,0 l/m 0 min 0 min 25 W/m 3,2 km/h (1 Bft) 100,00 %
02.09.2023 07:24 14,6 C 13,9 C 11,7 C 99 % 1018,3 hPa 0,0 l/m 0 min 0 min 26 W/m 3,2 km/h (1 Bft) 97,87 %
02.09.2023 07:26 14,6 C 13,9 C 11,7 C 99 % 1018,3 hPa 0,0 l/m 0 min 0 min 29 W/m 3,2 km/h (1 Bft) 97,87 %
02.09.2023 07:28 14,6 C 13,9 C 11,7 C 99 % 1018,3 hPa 0,0 l/m 0 min 0 min 30 W/m 6,4 km/h (2 Bft) 97,87 %
02.09.2023 07:30 14,6 C 14,4 C 11,7 C 99 % 1018,3 hPa 0,0 l/m 0 min 0 min 32 W/m 9,7 km/h (2 Bft) 95,74 %
02.09.2023 07:32 14,7 C 14,4 C 11,7 C 99 % 1018,3 hPa 0,0 l/m 0 min 0 min 32 W/m 3,2 km/h (1 Bft) 97,87 %
02.09.2023 07:34 14,7 C 14,4 C 11,7 C 99 % 1018,4 hPa 0,0 l/m 0 min 0 min 33 W/m 3,2 km/h (1 Bft) 97,87 %
02.09.2023 07:36 14,7 C 14,4 C 11,7 C 99 % 1018,5 hPa 0,0 l/m 0 min 0 min 34 W/m 3,2 km/h (1 Bft) 93,48 %
02.09.2023 07:38 14,7 C 14,4 C 11,7 C 99 % 1018,5 hPa 0,0 l/m 0 min 0 min 36 W/m 3,2 km/h (1 Bft) 91,49 %
02.09.2023 07:40 14,7 C 14,4 C 11,7 C 99 % 1018,5 hPa 0,0 l/m 0 min 0 min 38 W/m 6,4 km/h (2 Bft) 95,74 %
02.09.2023 07:42 14,7 C 14,4 C 11,7 C 99 % 1018,5 hPa 0,0 l/m 0 min 0 min 41 W/m 3,2 km/h (1 Bft) 95,74 %
02.09.2023 07:44 14,8 C 14,4 C 11,7 C 99 % 1018,5 hPa 0,0 l/m 0 min 0 min 44 W/m 3,2 km/h (1 Bft) 93,62 %
02.09.2023 07:46 14,8 C 14,4 C 11,7 C 99 % 1018,5 hPa 0,0 l/m 0 min 0 min 47 W/m 3,2 km/h (1 Bft) 95,74 %
02.09.2023 07:48 14,8 C 14,4 C 11,7 C 99 % 1018,6 hPa 0,0 l/m 0 min 0 min 49 W/m 3,2 km/h (1 Bft) 95,74 %
02.09.2023 07:50 14,8 C 14,4 C 11,7 C 99 % 1018,6 hPa 0,0 l/m 0 min 0 min 51 W/m 0,0 km/h (0 Bft) 95,65 %
02.09.2023 07:52 14,8 C 14,4 C 11,7 C 99 % 1018,7 hPa 0,0 l/m 0 min 0 min 52 W/m 6,4 km/h (2 Bft) 93,62 %
02.09.2023 07:54 14,8 C 14,4 C 11,7 C 99 % 1018,7 hPa 0,0 l/m 0 min 0 min 54 W/m 6,4 km/h (2 Bft) 93,62 %
02.09.2023 07:56 14,8 C 14,4 C 11,7 C 99 % 1018,8 hPa 0,0 l/m 0 min 0 min 58 W/m 3,2 km/h (1 Bft) 93,62 %
02.09.2023 07:58 14,9 C 14,4 C 11,7 C 99 % 1018,7 hPa 0,0 l/m 0 min 0 min 61 W/m 3,2 km/h (1 Bft) 97,87 %
02.09.2023 08:00 14,9 C 14,4 C 11,7 C 99 % 1018,7 hPa 0,0 l/m 0 min 0 min 63 W/m 6,4 km/h (2 Bft) 97,87 %
02.09.2023 08:02 14,9 C 14,4 C 12,2 C 99 % 1018,7 hPa 0,0 l/m 0 min 0 min 66 W/m 3,2 km/h (1 Bft) 93,62 %
02.09.2023 08:04 14,9 C 15,0 C 12,2 C 99 % 1018,7 hPa 0,0 l/m 0 min 0 min 67 W/m 3,2 km/h (1 Bft) 97,87 %
02.09.2023 08:06 14,9 C 15,0 C 12,2 C 99 % 1018,7 hPa 0,0 l/m 0 min 0 min 69 W/m 3,2 km/h (1 Bft) 98,28 %
02.09.2023 08:08 14,9 C 15,0 C 12,2 C 99 % 1018,7 hPa 0,0 l/m 0 min 0 min 69 W/m 3,2 km/h (1 Bft) 97,14 %
02.09.2023 08:10 15,0 C 15,0 C 12,2 C 99 % 1018,7 hPa 0,0 l/m 0 min 0 min 67 W/m 3,2 km/h (1 Bft) 97,87 %
02.09.2023 08:12 15,1 C 15,0 C 12,2 C 99 % 1018,7 hPa 0,0 l/m 0 min 0 min 67 W/m 3,2 km/h (1 Bft) 97,87 %
02.09.2023 08:14 15,1 C 15,0 C 12,2 C 99 % 1018,8 hPa 0,0 l/m 0 min 0 min 65 W/m 6,4 km/h (2 Bft) 97,87 %
02.09.2023 08:16 15,1 C 15,0 C 12,2 C 99 % 1018,8 hPa 0,0 l/m 0 min 0 min 65 W/m 6,4 km/h (2 Bft) 97,87 %
02.09.2023 08:18 15,1 C 15,0 C 12,2 C 99 % 1018,8 hPa 0,0 l/m 0 min 0 min 65 W/m 3,2 km/h (1 Bft) 95,65 %
02.09.2023 08:20 15,1 C 15,0 C 12,2 C 99 % 1018,8 hPa 0,0 l/m 0 min 0 min 65 W/m 3,2 km/h (1 Bft) 95,74 %
02.09.2023 08:22 15,1 C 15,0 C 12,2 C 99 % 1018,8 hPa 0,0 l/m 0 min 0 min 64 W/m 3,2 km/h (1 Bft) 97,87 %
02.09.2023 08:24 15,1 C 15,0 C 12,2 C 99 % 1018,9 hPa 0,0 l/m 0 min 0 min 63 W/m 6,4 km/h (2 Bft) 100,00 %
02.09.2023 08:26 15,2 C 15,0 C 12,2 C 99 % 1018,8 hPa 0,0 l/m 0 min 0 min 62 W/m 6,4 km/h (2 Bft) 100,00 %
02.09.2023 08:28 15,2 C 15,0 C 12,2 C 99 % 1018,8 hPa 0,0 l/m 0 min 0 min 62 W/m 12,9 km/h (3 Bft) 100,00 %
02.09.2023 08:30 15,2 C 15,0 C 12,2 C 99 % 1018,8 hPa 0,0 l/m 0 min 0 min 63 W/m 6,4 km/h (2 Bft) 97,87 %
02.09.2023 08:32 15,2 C 15,0 C 12,2 C 99 % 1018,9 hPa 0,0 l/m 0 min 0 min 66 W/m 6,4 km/h (2 Bft) 100,00 %
02.09.2023 08:34 15,2 C 15,0 C 12,2 C 99 % 1018,9 hPa 0,0 l/m 0 min 0 min 68 W/m 6,4 km/h (2 Bft) 100,00 %
02.09.2023 08:36 15,3 C 15,0 C 12,2 C 99 % 1018,8 hPa 0,0 l/m 0 min 0 min 73 W/m 3,2 km/h (1 Bft) 95,74 %
02.09.2023 08:38 15,3 C 15,0 C 12,2 C 99 % 1018,9 hPa 0,0 l/m 0 min 0 min 79 W/m 3,2 km/h (1 Bft) 97,87 %
02.09.2023 08:40 15,3 C 15,0 C 12,2 C 99 % 1018,9 hPa 0,0 l/m 0 min 0 min 86 W/m 12,9 km/h (3 Bft) 100,00 %
02.09.2023 08:42 15,3 C 15,0 C 12,2 C 99 % 1018,9 hPa 0,0 l/m 0 min 0 min 92 W/m 6,4 km/h (2 Bft) 100,00 %
02.09.2023 08:44 15,3 C 15,0 C 12,2 C 99 % 1019,0 hPa 0,0 l/m 0 min 0 min 96 W/m 6,4 km/h (2 Bft) 97,87 %
02.09.2023 08:46 15,4 C 15,6 C 12,2 C 99 % 1019,0 hPa 0,0 l/m 0 min 0 min 100 W/m 12,9 km/h (3 Bft) 100,00 %
02.09.2023 08:48 15,4 C 15,6 C 12,8 C 99 % 1019,0 hPa 0,0 l/m 0 min 0 min 102 W/m 6,4 km/h (2 Bft) 100,00 %
02.09.2023 08:50 15,4 C 15,6 C 12,8 C 99 % 1019,1 hPa 0,0 l/m 0 min 0 min 104 W/m 16,1 km/h (3 Bft) 100,00 %
02.09.2023 08:52 15,4 C 15,6 C 12,8 C 99 % 1019,1 hPa 0,0 l/m 0 min 0 min 104 W/m 12,9 km/h (3 Bft) 100,00 %
02.09.2023 08:54 15,4 C 15,6 C 12,8 C 99 % 1019,1 hPa 0,0 l/m 0 min 0 min 101 W/m 6,4 km/h (2 Bft) 97,87 %
02.09.2023 08:56 15,4 C 15,6 C 12,8 C 99 % 1019,1 hPa 0,0 l/m 0 min 0 min 98 W/m 6,4 km/h (2 Bft) 97,87 %
02.09.2023 08:58 15,5 C 15,6 C 12,8 C 99 % 1019,1 hPa 0,0 l/m 0 min 0 min 97 W/m 3,2 km/h (1 Bft) 97,87 %
02.09.2023 09:00 15,5 C 15,6 C 12,8 C 99 % 1019,2 hPa 0,0 l/m 0 min 0 min 95 W/m 6,4 km/h (2 Bft) 97,83 %
02.09.2023 09:02 15,6 C 15,6 C 12,8 C 99 % 1019,2 hPa 0,0 l/m 0 min 0 min 97 W/m 12,9 km/h (3 Bft) 95,74 %
02.09.2023 09:04 15,6 C 15,6 C 12,8 C 99 % 1019,3 hPa 0,0 l/m 0 min 0 min 97 W/m 6,4 km/h (2 Bft) 95,45 %
02.09.2023 09:06 15,6 C 15,6 C 12,8 C 99 % 1019,2 hPa 0,0 l/m 0 min 0 min 98 W/m 6,4 km/h (2 Bft) 96,61 %
02.09.2023 09:08 15,6 C 15,6 C 12,8 C 99 % 1019,2 hPa 0,0 l/m 0 min 0 min 104 W/m 6,4 km/h (2 Bft) 97,14 %
02.09.2023 09:10 15,6 C 15,6 C 12,8 C 99 % 1019,2 hPa 0,0 l/m 0 min 0 min 111 W/m 3,2 km/h (1 Bft) 97,87 %
02.09.2023 09:12 15,6 C 16,1 C 12,8 C 99 % 1019,3 hPa 0,0 l/m 0 min 0 min 119 W/m 6,4 km/h (2 Bft) 97,87 %
02.09.2023 09:14 15,7 C 16,1 C 12,8 C 99 % 1019,3 hPa 0,0 l/m 0 min 0 min 130 W/m 6,4 km/h (2 Bft) 97,87 %
02.09.2023 09:16 15,7 C 16,1 C 12,8 C 99 % 1019,3 hPa 0,0 l/m 0 min 0 min 137 W/m 12,9 km/h (3 Bft) 97,87 %
02.09.2023 09:18 15,7 C 16,1 C 12,8 C 99 % 1019,3 hPa 0,0 l/m 0 min 0 min 146 W/m 9,7 km/h (2 Bft) 95,65 %
02.09.2023 09:20 15,7 C 16,1 C 12,8 C 99 % 1019,4 hPa 0,0 l/m 0 min 0 min 151 W/m 3,2 km/h (1 Bft) 97,87 %
02.09.2023 09:22 15,8 C 16,1 C 12,8 C 99 % 1019,4 hPa 0,0 l/m 0 min 0 min 153 W/m 3,2 km/h (1 Bft) 95,74 %
02.09.2023 09:24 15,8 C 16,1 C 13,3 C 99 % 1019,4 hPa 0,0 l/m 0 min 0 min 152 W/m 3,2 km/h (1 Bft) 95,74 %
02.09.2023 09:26 15,8 C 16,1 C 13,3 C 99 % 1019,4 hPa 0,0 l/m 0 min 0 min 151 W/m 3,2 km/h (1 Bft) 91,49 %
02.09.2023 09:28 15,9 C 16,1 C 13,3 C 99 % 1019,4 hPa 0,0 l/m 0 min 0 min 148 W/m 3,2 km/h (1 Bft) 95,74 %
02.09.2023 09:30 15,9 C 16,7 C 13,3 C 99 % 1019,5 hPa 0,0 l/m 0 min 0 min 145 W/m 3,2 km/h (1 Bft) 95,74 %
02.09.2023 09:32 15,9 C 16,7 C 13,3 C 99 % 1019,5 hPa 0,0 l/m 0 min 0 min 141 W/m 3,2 km/h (1 Bft) 93,48 %
02.09.2023 09:34 16,0 C 16,7 C 13,3 C 99 % 1019,6 hPa 0,0 l/m 0 min 0 min 137 W/m 3,2 km/h (1 Bft) 95,74 %
02.09.2023 09:36 16,0 C 16,7 C 13,3 C 99 % 1019,6 hPa 0,0 l/m 0 min 0 min 133 W/m 3,2 km/h (1 Bft) 95,74 %
02.09.2023 09:38 16,1 C 16,7 C 13,3 C 99 % 1019,7 hPa 0,0 l/m 0 min 0 min 129 W/m 6,4 km/h (2 Bft) 93,62 %
02.09.2023 09:40 16,1 C 16,7 C 13,3 C 99 % 1019,7 hPa 0,0 l/m 0 min 0 min 125 W/m 6,4 km/h (2 Bft) 93,62 %
02.09.2023 09:42 16,1 C 16,7 C 13,3 C 99 % 1019,8 hPa 0,0 l/m 0 min 0 min 120 W/m 3,2 km/h (1 Bft) 97,87 %
02.09.2023 09:44 16,1 C 16,7 C 13,3 C 99 % 1019,9 hPa 0,0 l/m 0 min 0 min 113 W/m 3,2 km/h (1 Bft) 97,83 %
02.09.2023 09:46 16,2 C 16,7 C 13,3 C 99 % 1020,0 hPa 0,0 l/m 0 min 0 min 111 W/m 3,2 km/h (1 Bft) 97,87 %
02.09.2023 09:48 16,2 C 16,7 C 13,3 C 99 % 1020,0 hPa 0,0 l/m 0 min 0 min 112 W/m 6,4 km/h (2 Bft) 97,87 %
02.09.2023 09:50 16,2 C 16,7 C 13,3 C 99 % 1020,0 hPa 0,0 l/m 0 min 0 min 116 W/m 6,4 km/h (2 Bft) 97,87 %
02.09.2023 09:52 16,2 C 16,7 C 13,3 C 99 % 1020,0 hPa 0,0 l/m 0 min 0 min 120 W/m 3,2 km/h (1 Bft) 97,87 %
02.09.2023 09:54 16,2 C 16,7 C 13,3 C 99 % 1020,1 hPa 0,0 l/m 0 min 0 min 122 W/m 3,2 km/h (1 Bft) 97,87 %
02.09.2023 09:56 16,2 C 16,7 C 13,3 C 99 % 1020,1 hPa 0,0 l/m 0 min 0 min 128 W/m 6,4 km/h (2 Bft) 100,00 %
02.09.2023 09:58 16,3 C 16,7 C 13,3 C 99 % 1020,2 hPa 0,0 l/m 0 min 0 min 135 W/m 3,2 km/h (1 Bft) 100,00 %
02.09.2023 10:00 16,3 C 16,7 C 13,3 C 99 % 1020,2 hPa 0,0 l/m 0 min 0 min 140 W/m 3,2 km/h (1 Bft) 97,87 %
02.09.2023 10:02 16,3 C 16,7 C 13,9 C 99 % 1020,2 hPa 0,0 l/m 0 min 0 min 148 W/m 3,2 km/h (1 Bft) 97,87 %
02.09.2023 10:04 16,3 C 16,7 C 13,9 C 99 % 1020,2 hPa 0,0 l/m 0 min 0 min 164 W/m 3,2 km/h (1 Bft) 100,00 %
02.09.2023 10:06 16,4 C 17,2 C 13,9 C 99 % 1020,2 hPa 0,0 l/m 0 min 0 min 183 W/m 6,4 km/h (2 Bft) 98,31 %
02.09.2023 10:08 16,4 C 17,2 C 13,9 C 99 % 1020,2 hPa 0,0 l/m 0 min 0 min 199 W/m 3,2 km/h (1 Bft) 100,00 %
02.09.2023 10:10 16,4 C 17,2 C 13,9 C 99 % 1020,2 hPa 0,0 l/m 0 min 0 min 213 W/m 3,2 km/h (1 Bft) 100,00 %
02.09.2023 10:12 16,5 C 17,2 C 13,9 C 99 % 1020,2 hPa 0,0 l/m 0 min 0 min 222 W/m 6,4 km/h (2 Bft) 100,00 %
02.09.2023 10:14 16,6 C 17,2 C 13,9 C 99 % 1020,2 hPa 0,0 l/m 0 min 0 min 228 W/m 6,4 km/h (2 Bft) 100,00 %
02.09.2023 10:16 16,6 C 17,2 C 13,9 C 99 % 1020,2 hPa 0,0 l/m 0 min 0 min 230 W/m 12,9 km/h (3 Bft) 97,87 %
02.09.2023 10:18 16,6 C 17,8 C 14,4 C 99 % 1020,3 hPa 0,0 l/m 0 min 0 min 233 W/m 6,4 km/h (2 Bft) 95,74 %
02.09.2023 10:20 16,6 C 17,8 C 14,4 C 99 % 1020,3 hPa 0,0 l/m 0 min 0 min 229 W/m 6,4 km/h (2 Bft) 97,87 %
02.09.2023 10:22 16,7 C 17,8 C 14,4 C 99 % 1020,3 hPa 0,0 l/m 0 min 0 min 222 W/m 6,4 km/h (2 Bft) 97,87 %
02.09.2023 10:24 16,7 C 17,8 C 14,4 C 99 % 1020,3 hPa 0,0 l/m 0 min 0 min 221 W/m 6,4 km/h (2 Bft) 97,87 %
02.09.2023 10:26 16,8 C 17,8 C 14,4 C 99 % 1020,3 hPa 0,0 l/m 0 min 0 min 217 W/m 3,2 km/h (1 Bft) 95,65 %
02.09.2023 10:28 16,8 C 18,3 C 14,4 C 99 % 1020,3 hPa 0,0 l/m 0 min 0 min 215 W/m 0,0 km/h (0 Bft) 97,87 %
02.09.2023 10:30 16,9 C 18,3 C 14,4 C 99 % 1020,3 hPa 0,0 l/m 0 min 0 min 213 W/m 3,2 km/h (1 Bft) 93,62 %
02.09.2023 10:32 16,9 C 18,3 C 14,4 C 99 % 1020,3 hPa 0,0 l/m 0 min 0 min 215 W/m 0,0 km/h (0 Bft) 97,87 %
02.09.2023 10:34 16,9 C 18,3 C 14,4 C 99 % 1020,4 hPa 0,0 l/m 0 min 0 min 212 W/m 3,2 km/h (1 Bft) 97,87 %
02.09.2023 10:36 17,0 C 18,3 C 14,4 C 99 % 1020,4 hPa 0,0 l/m 0 min 0 min 212 W/m 3,2 km/h (1 Bft) 95,74 %
02.09.2023 10:38 17,1 C 18,3 C 14,4 C 98 % 1020,3 hPa 0,0 l/m 0 min 0 min 220 W/m 3,2 km/h (1 Bft) 97,87 %
02.09.2023 10:40 17,1 C 18,3 C 14,4 C 98 % 1020,4 hPa 0,0 l/m 0 min 0 min 228 W/m 3,2 km/h (1 Bft) 97,83 %
02.09.2023 10:42 17,2 C 18,3 C 14,4 C 98 % 1020,4 hPa 0,0 l/m 0 min 0 min 227 W/m 3,2 km/h (1 Bft) 95,74 %
02.09.2023 10:44 17,2 C 18,3 C 14,4 C 98 % 1020,5 hPa 0,0 l/m 0 min 0 min 234 W/m 3,2 km/h (1 Bft) 98,00 %
02.09.2023 10:46 17,2 C 18,3 C 14,4 C 98 % 1020,5 hPa 0,0 l/m 0 min 0 min 246 W/m 3,2 km/h (1 Bft) 97,87 %
02.09.2023 10:48 17,3 C 18,9 C 15,0 C 98 % 1020,5 hPa 0,0 l/m 0 min 0 min 261 W/m 0,0 km/h (0 Bft) 97,14 %
02.09.2023 10:50 17,3 C 18,3 C 15,0 C 98 % 1020,5 hPa 0,0 l/m 0 min 0 min 271 W/m 6,4 km/h (2 Bft) 97,87 %
02.09.2023 10:52 17,3 C 18,9 C 15,0 C 98 % 1020,4 hPa 0,0 l/m 0 min 0 min 278 W/m 3,2 km/h (1 Bft) 97,87 %
02.09.2023 10:54 17,4 C 18,9 C 15,0 C 98 % 1020,5 hPa 0,0 l/m 2 min 0 min 289 W/m 3,2 km/h (1 Bft) 97,87 %
02.09.2023 10:56 17,4 C 18,9 C 15,0 C 98 % 1020,4 hPa 0,0 l/m 2 min 0 min 293 W/m 3,2 km/h (1 Bft) 95,74 %
02.09.2023 10:58 17,5 C 19,4 C 15,0 C 98 % 1020,4 hPa 0,0 l/m 0 min 0 min 287 W/m 3,2 km/h (1 Bft) 97,83 %
02.09.2023 11:00 17,6 C 19,4 C 15,0 C 98 % 1020,3 hPa 0,0 l/m 2 min 0 min 312 W/m 0,0 km/h (0 Bft) 100,00 %
02.09.2023 11:02 17,6 C 19,4 C 15,6 C 98 % 1020,3 hPa 0,0 l/m 2 min 0 min 318 W/m 0,0 km/h (0 Bft) 97,87 %
02.09.2023 11:04 17,7 C 19,4 C 15,6 C 98 % 1020,4 hPa 0,0 l/m 2 min 0 min 320 W/m 0,0 km/h (0 Bft) 100,00 %
02.09.2023 11:06 17,8 C 20,0 C 15,6 C 98 % 1020,4 hPa 0,0 l/m 2 min 0 min 354 W/m 0,0 km/h (0 Bft) 100,00 %
02.09.2023 11:08 17,8 C 20,0 C 15,6 C 97 % 1020,3 hPa 0,0 l/m 0 min 0 min 294 W/m 3,2 km/h (1 Bft) 100,00 %
02.09.2023 11:10 17,9 C 20,0 C 15,6 C 98 % 1020,3 hPa 0,0 l/m 0 min 0 min 258 W/m 0,0 km/h (0 Bft) 97,83 %
02.09.2023 11:12 17,9 C 19,4 C 15,6 C 97 % 1020,3 hPa 0,0 l/m 0 min 0 min 235 W/m 3,2 km/h (1 Bft) 97,87 %
02.09.2023 11:14 18,0 C 19,4 C 15,6 C 97 % 1020,3 hPa 0,0 l/m 0 min 0 min 254 W/m 3,2 km/h (1 Bft) 97,87 %
02.09.2023 11:16 18,1 C 19,4 C 15,6 C 97 % 1020,3 hPa 0,0 l/m 0 min 0 min 267 W/m 6,4 km/h (2 Bft) 100,00 %
02.09.2023 11:18 18,1 C 19,4 C 15,6 C 97 % 1020,3 hPa 0,0 l/m 0 min 0 min 279 W/m 3,2 km/h (1 Bft) 100,00 %
02.09.2023 11:20 18,2 C 20,0 C 15,6 C 97 % 1020,4 hPa 0,0 l/m 0 min 0 min 271 W/m 0,0 km/h (0 Bft) 97,87 %
02.09.2023 11:22 18,2 C 20,0 C 15,6 C 97 % 1020,3 hPa 0,0 l/m 0 min 0 min 273 W/m 0,0 km/h (0 Bft) 100,00 %
02.09.2023 11:24 18,3 C 20,0 C 15,6 C 97 % 1020,3 hPa 0,0 l/m 0 min 0 min 272 W/m 3,2 km/h (1 Bft) 100,00 %
02.09.2023 11:26 18,4 C 20,0 C 16,1 C 96 % 1020,3 hPa 0,0 l/m 0 min 0 min 274 W/m 6,4 km/h (2 Bft) 100,00 %
02.09.2023 11:28 18,4 C 20,0 C 16,1 C 96 % 1020,4 hPa 0,0 l/m 0 min 0 min 291 W/m 3,2 km/h (1 Bft) 100,00 %
02.09.2023 11:30 18,5 C 20,0 C 16,1 C 96 % 1020,4 hPa 0,0 l/m 2 min 0 min 314 W/m 6,4 km/h (2 Bft) 97,87 %
02.09.2023 11:32 18,6 C 20,6 C 16,1 C 96 % 1020,4 hPa 0,0 l/m 2 min 0 min 315 W/m 3,2 km/h (1 Bft) 97,87 %
02.09.2023 11:34 18,6 C 20,6 C 16,1 C 96 % 1020,4 hPa 0,0 l/m 2 min 0 min 332 W/m 6,4 km/h (2 Bft) 97,87 %
02.09.2023 11:36 18,7 C 21,1 C 16,1 C 96 % 1020,5 hPa 0,0 l/m 2 min 0 min 374 W/m 6,4 km/h (2 Bft) 97,87 %
02.09.2023 11:38 18,8 C 21,1 C 16,7 C 95 % 1020,5 hPa 0,0 l/m 2 min 0 min 387 W/m 6,4 km/h (2 Bft) 97,87 %
02.09.2023 11:40 18,8 C 21,1 C 16,7 C 95 % 1020,5 hPa 0,0 l/m 2 min 0 min 383 W/m 3,2 km/h (1 Bft) 97,83 %
02.09.2023 11:42 19,0 C 21,1 C 16,7 C 95 % 1020,5 hPa 0,0 l/m 2 min 0 min 375 W/m 0,0 km/h (0 Bft) 97,87 %
02.09.2023 11:44 19,1 C 21,1 C 16,7 C 95 % 1020,6 hPa 0,0 l/m 2 min 0 min 347 W/m 6,4 km/h (2 Bft) 97,87 %
02.09.2023 11:46 19,2 C 21,1 C 16,7 C 94 % 1020,5 hPa 0,0 l/m 2 min 0 min 388 W/m 3,2 km/h (1 Bft) 97,87 %
02.09.2023 11:48 19,2 C 21,7 C 16,7 C 94 % 1020,6 hPa 0,0 l/m 2 min 0 min 441 W/m 3,2 km/h (1 Bft) 97,87 %
02.09.2023 11:50 19,3 C 21,7 C 17,2 C 94 % 1020,6 hPa 0,0 l/m 2 min 0 min 426 W/m 6,4 km/h (2 Bft) 95,74 %
02.09.2023 11:52 19,4 C 22,2 C 17,2 C 94 % 1020,7 hPa 0,0 l/m 2 min 0 min 409 W/m 3,2 km/h (1 Bft) 97,83 %
02.09.2023 11:54 19,5 C 21,7 C 17,2 C 93 % 1020,7 hPa 0,0 l/m 2 min 0 min 337 W/m 3,2 km/h (1 Bft) 95,74 %
02.09.2023 11:56 19,6 C 21,7 C 17,2 C 93 % 1020,7 hPa 0,0 l/m 0 min 0 min 325 W/m 3,2 km/h (1 Bft) 95,74 %
02.09.2023 11:58 19,7 C 21,7 C 17,2 C 93 % 1020,7 hPa 0,0 l/m 0 min 0 min 297 W/m 0,0 km/h (0 Bft) 95,74 %
02.09.2023 12:00 19,8 C 21,7 C 17,2 C 92 % 1020,6 hPa 0,0 l/m 0 min 0 min 272 W/m 3,2 km/h (1 Bft) 97,87 %
02.09.2023 12:02 19,8 C 21,1 C 17,2 C 92 % 1020,6 hPa 0,0 l/m 0 min 0 min 282 W/m 6,4 km/h (2 Bft) 95,74 %
02.09.2023 12:04 19,9 C 21,1 C 16,7 C 92 % 1020,6 hPa 0,0 l/m 0 min 0 min 301 W/m 3,2 km/h (1 Bft) 98,00 %
02.09.2023 12:08 20,1 C 21,7 C 17,2 C 91 % 1020,7 hPa 0,0 l/m 4 min 0 min 341 W/m 6,4 km/h (2 Bft) 97,87 %
02.09.2023 12:10 20,1 C 21,7 C 17,2 C 91 % 1020,7 hPa 0,0 l/m 2 min 0 min 344 W/m 3,2 km/h (1 Bft) 97,87 %
02.09.2023 12:12 20,2 C 21,7 C 17,2 C 91 % 1020,7 hPa 0,0 l/m 2 min 0 min 344 W/m 3,2 km/h (1 Bft) 95,74 %
02.09.2023 12:14 20,3 C 21,7 C 17,2 C 91 % 1020,8 hPa 0,0 l/m 2 min 0 min 342 W/m 0,0 km/h (0 Bft) 97,87 %
02.09.2023 12:16 20,4 C 21,7 C 17,2 C 90 % 1020,8 hPa 0,0 l/m 2 min 0 min 353 W/m 3,2 km/h (1 Bft) 97,87 %
02.09.2023 12:18 20,4 C 22,2 C 17,2 C 90 % 1020,8 hPa 0,0 l/m 2 min 0 min 360 W/m 3,2 km/h (1 Bft) 97,83 %
02.09.2023 12:20 20,5 C 22,2 C 17,2 C 90 % 1020,7 hPa 0,0 l/m 2 min 0 min 343 W/m 3,2 km/h (1 Bft) 97,87 %
02.09.2023 12:22 20,6 C 22,2 C 17,2 C 89 % 1020,8 hPa 0,0 l/m 2 min 0 min 345 W/m 3,2 km/h (1 Bft) 95,74 %
02.09.2023 12:24 20,7 C 22,2 C 17,2 C 89 % 1020,8 hPa 0,0 l/m 0 min 0 min 337 W/m 3,2 km/h (1 Bft) 97,87 %
02.09.2023 12:26 20,7 C 22,2 C 17,2 C 89 % 1020,8 hPa 0,0 l/m 0 min 0 min 326 W/m 3,2 km/h (1 Bft) 95,74 %
02.09.2023 12:28 20,8 C 22,2 C 17,2 C 89 % 1020,8 hPa 0,0 l/m 0 min 0 min 337 W/m 3,2 km/h (1 Bft) 97,87 %
02.09.2023 12:30 20,9 C 22,2 C 17,2 C 89 % 1020,8 hPa 0,0 l/m 2 min 0 min 397 W/m 3,2 km/h (1 Bft) 95,74 %
02.09.2023 12:32 20,9 C 22,8 C 17,8 C 89 % 1020,8 hPa 0,0 l/m 2 min 0 min 458 W/m 3,2 km/h (1 Bft) 97,83 %
02.09.2023 12:34 21,0 C 22,8 C 17,8 C 89 % 1020,9 hPa 0,0 l/m 2 min 0 min 386 W/m 3,2 km/h (1 Bft) 97,87 %
02.09.2023 12:36 21,1 C 22,8 C 17,8 C 88 % 1020,8 hPa 0,0 l/m 2 min 0 min 368 W/m 0,0 km/h (0 Bft) 95,74 %
02.09.2023 12:38 21,1 C 22,8 C 17,8 C 88 % 1020,8 hPa 0,0 l/m 2 min 0 min 404 W/m 6,4 km/h (2 Bft) 97,87 %
02.09.2023 12:40 21,2 C 22,8 C 17,8 C 88 % 1020,8 hPa 0,0 l/m 2 min 0 min 415 W/m 6,4 km/h (2 Bft) 95,74 %
02.09.2023 12:42 21,3 C 23,3 C 17,8 C 88 % 1020,8 hPa 0,0 l/m 2 min 0 min 434 W/m 0,0 km/h (0 Bft) 95,74 %
02.09.2023 12:44 21,3 C 23,3 C 17,8 C 88 % 1020,9 hPa 0,0 l/m 2 min 0 min 452 W/m 0,0 km/h (0 Bft) 95,74 %
02.09.2023 12:46 21,4 C 23,9 C 18,3 C 88 % 1020,9 hPa 0,0 l/m 2 min 0 min 494 W/m 6,4 km/h (2 Bft) 93,62 %
02.09.2023 12:48 21,6 C 23,9 C 18,3 C 87 % 1021,0 hPa 0,0 l/m 2 min 0 min 459 W/m 3,2 km/h (1 Bft) 95,65 %
02.09.2023 12:50 21,6 C 23,9 C 18,3 C 87 % 1021,0 hPa 0,0 l/m 2 min 0 min 431 W/m 3,2 km/h (1 Bft) 95,74 %
02.09.2023 12:52 21,7 C 23,9 C 18,3 C 87 % 1021,1 hPa 0,0 l/m 2 min 0 min 423 W/m 3,2 km/h (1 Bft) 93,62 %
02.09.2023 12:54 21,7 C 23,3 C 18,3 C 86 % 1021,0 hPa 0,0 l/m 2 min 0 min 425 W/m 3,2 km/h (1 Bft) 93,62 %
02.09.2023 12:56 21,8 C 23,3 C 18,3 C 86 % 1021,0 hPa 0,0 l/m 2 min 0 min 407 W/m 6,4 km/h (2 Bft) 95,74 %
02.09.2023 12:58 21,9 C 23,3 C 18,3 C 86 % 1021,0 hPa 0,0 l/m 2 min 0 min 388 W/m 6,4 km/h (2 Bft) 95,74 %
02.09.2023 13:00 21,9 C 23,3 C 18,3 C 85 % 1021,0 hPa 0,0 l/m 2 min 0 min 403 W/m 6,4 km/h (2 Bft) 95,74 %
02.09.2023 13:02 21,9 C 23,3 C 18,3 C 85 % 1021,0 hPa 0,0 l/m 0 min 0 min 332 W/m 9,7 km/h (2 Bft) 95,65 %
02.09.2023 13:04 22,0 C 23,3 C 18,3 C 85 % 1021,0 hPa 0,0 l/m 0 min 0 min 320 W/m 9,7 km/h (2 Bft) 96,00 %
02.09.2023 13:06 22,0 C 22,8 C 18,3 C 85 % 1021,0 hPa 0,0 l/m 2 min 0 min 355 W/m 9,7 km/h (2 Bft) 95,74 %
02.09.2023 13:08 22,0 C 22,8 C 18,3 C 84 % 1021,0 hPa 0,0 l/m 2 min 0 min 387 W/m 6,4 km/h (2 Bft) 97,87 %
02.09.2023 13:10 22,0 C 22,8 C 18,3 C 85 % 1021,0 hPa 0,0 l/m 2 min 0 min 368 W/m 3,2 km/h (1 Bft) 91,49 %
02.09.2023 13:12 22,1 C 23,3 C 18,3 C 85 % 1021,0 hPa 0,0 l/m 0 min 0 min 326 W/m 6,4 km/h (2 Bft) 97,87 %
02.09.2023 13:14 22,1 C 23,3 C 18,3 C 86 % 1021,0 hPa 0,0 l/m 2 min 0 min 365 W/m 12,9 km/h (3 Bft) 97,87 %
02.09.2023 13:16 22,2 C 23,3 C 18,3 C 85 % 1021,0 hPa 0,0 l/m 2 min 0 min 374 W/m 3,2 km/h (1 Bft) 97,83 %
02.09.2023 13:18 22,2 C 23,3 C 18,3 C 86 % 1020,9 hPa 0,0 l/m 2 min 0 min 378 W/m 6,4 km/h (2 Bft) 97,87 %
02.09.2023 13:20 22,3 C 23,3 C 18,3 C 86 % 1021,0 hPa 0,0 l/m 0 min 0 min 352 W/m 3,2 km/h (1 Bft) 97,87 %
02.09.2023 13:22 22,3 C 23,3 C 18,9 C 86 % 1021,0 hPa 0,0 l/m 0 min 0 min 337 W/m 3,2 km/h (1 Bft) 100,00 %
02.09.2023 13:24 22,4 C 23,3 C 18,3 C 85 % 1021,0 hPa 0,0 l/m 0 min 0 min 274 W/m 3,2 km/h (1 Bft) 97,87 %
02.09.2023 13:26 22,4 C 23,3 C 18,3 C 85 % 1021,0 hPa 0,0 l/m 0 min 0 min 291 W/m 3,2 km/h (1 Bft) 97,87 %
02.09.2023 13:28 22,4 C 23,3 C 18,3 C 86 % 1021,0 hPa 0,0 l/m 0 min 0 min 326 W/m 6,4 km/h (2 Bft) 100,00 %
02.09.2023 13:30 22,4 C 23,3 C 18,3 C 85 % 1021,0 hPa 0,0 l/m 0 min 0 min 339 W/m 6,4 km/h (2 Bft) 100,00 %
02.09.2023 13:32 22,5 C 23,3 C 18,3 C 85 % 1020,9 hPa 0,0 l/m 0 min 0 min 354 W/m 3,2 km/h (1 Bft) 97,87 %
02.09.2023 13:34 22,5 C 23,9 C 18,9 C 85 % 1020,9 hPa 0,0 l/m 2 min 0 min 360 W/m 3,2 km/h (1 Bft) 95,74 %
02.09.2023 13:36 22,5 C 23,9 C 18,3 C 85 % 1020,9 hPa 0,0 l/m 0 min 0 min 351 W/m 6,4 km/h (2 Bft) 97,87 %
02.09.2023 13:38 22,6 C 23,9 C 18,9 C 85 % 1020,9 hPa 0,0 l/m 2 min 0 min 363 W/m 3,2 km/h (1 Bft) 97,87 %
02.09.2023 13:40 22,6 C 23,9 C 18,9 C 85 % 1020,9 hPa 0,0 l/m 2 min 0 min 382 W/m 6,4 km/h (2 Bft) 97,87 %
02.09.2023 13:42 22,6 C 23,9 C 18,9 C 85 % 1021,0 hPa 0,0 l/m 2 min 0 min 372 W/m 6,4 km/h (2 Bft) 97,83 %
02.09.2023 13:44 22,7 C 23,9 C 18,9 C 85 % 1021,0 hPa 0,0 l/m 0 min 0 min 327 W/m 6,4 km/h (2 Bft) 97,87 %
02.09.2023 13:46 22,7 C 23,9 C 18,9 C 85 % 1021,1 hPa 0,0 l/m 2 min 0 min 378 W/m 3,2 km/h (1 Bft) 97,87 %
02.09.2023 13:48 22,7 C 23,9 C 18,9 C 84 % 1021,1 hPa 0,0 l/m 2 min 0 min 379 W/m 6,4 km/h (2 Bft) 97,87 %
02.09.2023 13:50 22,7 C 23,9 C 18,9 C 84 % 1021,1 hPa 0,0 l/m 0 min 0 min 354 W/m 3,2 km/h (1 Bft) 97,87 %
02.09.2023 13:52 22,7 C 23,9 C 18,9 C 84 % 1021,1 hPa 0,0 l/m 2 min 0 min 382 W/m 3,2 km/h (1 Bft) 97,87 %
02.09.2023 13:54 22,7 C 23,9 C 18,9 C 84 % 1021,1 hPa 0,0 l/m 2 min 0 min 385 W/m 6,4 km/h (2 Bft) 97,87 %
02.09.2023 13:56 22,8 C 23,9 C 18,9 C 84 % 1021,1 hPa 0,0 l/m 2 min 0 min 360 W/m 6,4 km/h (2 Bft) 97,87 %
02.09.2023 13:58 22,7 C 23,9 C 18,9 C 83 % 1021,2 hPa 0,0 l/m 0 min 0 min 346 W/m 6,4 km/h (2 Bft) 95,65 %
02.09.2023 14:00 22,7 C 23,3 C 18,9 C 83 % 1021,2 hPa 0,0 l/m 0 min 0 min 316 W/m 9,7 km/h (2 Bft) 95,74 %
02.09.2023 14:02 22,7 C 23,3 C 18,9 C 83 % 1021,2 hPa 0,0 l/m 0 min 0 min 267 W/m 3,2 km/h (1 Bft) 97,87 %
02.09.2023 14:04 22,7 C 23,3 C 18,3 C 83 % 1021,2 hPa 0,0 l/m 0 min 0 min 240 W/m 3,2 km/h (1 Bft) 97,92 %
02.09.2023 14:06 22,7 C 22,8 C 18,3 C 83 % 1021,2 hPa 0,0 l/m 0 min 0 min 206 W/m 6,4 km/h (2 Bft) 100,00 %
02.09.2023 14:08 22,7 C 22,8 C 18,3 C 83 % 1021,1 hPa 0,0 l/m 0 min 0 min 247 W/m 6,4 km/h (2 Bft) 97,87 %
02.09.2023 14:10 22,7 C 22,8 C 18,3 C 83 % 1021,1 hPa 0,0 l/m 0 min 0 min 286 W/m 6,4 km/h (2 Bft) 95,74 %
02.09.2023 14:12 22,7 C 22,8 C 18,3 C 83 % 1021,2 hPa 0,0 l/m 0 min 0 min 258 W/m 0,0 km/h (0 Bft) 100,00 %
02.09.2023 14:14 22,7 C 23,3 C 18,3 C 83 % 1021,1 hPa 0,0 l/m 0 min 0 min 321 W/m 0,0 km/h (0 Bft) 100,00 %
02.09.2023 14:16 22,7 C 23,9 C 18,3 C 83 % 1021,1 hPa 0,0 l/m 2 min 0 min 479 W/m 3,2 km/h (1 Bft) 100,00 %
02.09.2023 14:18 22,7 C 23,9 C 18,3 C 83 % 1021,1 hPa 0,0 l/m 2 min 0 min 361 W/m 6,4 km/h (2 Bft) 100,00 %
02.09.2023 14:20 22,8 C 23,9 C 18,3 C 83 % 1021,1 hPa 0,0 l/m 0 min 0 min 255 W/m 3,2 km/h (1 Bft) 100,00 %
02.09.2023 14:22 22,8 C 23,9 C 18,3 C 84 % 1021,1 hPa 0,0 l/m 0 min 0 min 236 W/m 6,4 km/h (2 Bft) 100,00 %
02.09.2023 14:24 22,8 C 23,3 C 18,3 C 83 % 1021,2 hPa 0,0 l/m 0 min 0 min 263 W/m 9,7 km/h (2 Bft) 100,00 %
02.09.2023 14:26 22,8 C 23,3 C 18,3 C 83 % 1021,2 hPa 0,0 l/m 0 min 0 min 315 W/m 3,2 km/h (1 Bft) 100,00 %
02.09.2023 14:28 22,8 C 23,3 C 18,3 C 83 % 1021,1 hPa 0,0 l/m 2 min 0 min 356 W/m 6,4 km/h (2 Bft) 100,00 %
02.09.2023 14:30 22,8 C 23,3 C 18,9 C 83 % 1021,1 hPa 0,0 l/m 2 min 0 min 365 W/m 12,9 km/h (3 Bft) 100,00 %
02.09.2023 14:32 22,8 C 23,3 C 18,9 C 83 % 1021,2 hPa 0,0 l/m 0 min 0 min 321 W/m 3,2 km/h (1 Bft) 100,00 %
02.09.2023 14:34 22,9 C 23,3 C 18,9 C 83 % 1021,2 hPa 0,0 l/m 0 min 0 min 292 W/m 6,4 km/h (2 Bft) 100,00 %
02.09.2023 14:36 22,9 C 23,9 C 18,9 C 83 % 1021,3 hPa 0,0 l/m 0 min 0 min 317 W/m 3,2 km/h (1 Bft) 100,00 %
02.09.2023 14:38 22,9 C 23,9 C 18,9 C 83 % 1021,3 hPa 0,0 l/m 0 min 0 min 329 W/m 3,2 km/h (1 Bft) 100,00 %
02.09.2023 14:40 22,9 C 23,9 C 18,9 C 83 % 1021,3 hPa 0,0 l/m 0 min 0 min 270 W/m 3,2 km/h (1 Bft) 100,00 %
02.09.2023 14:42 22,9 C 23,9 C 18,9 C 83 % 1021,3 hPa 0,0 l/m 0 min 0 min 273 W/m 3,2 km/h (1 Bft) 100,00 %
02.09.2023 14:44 22,9 C 23,9 C 18,9 C 83 % 1021,3 hPa 0,0 l/m 0 min 0 min 299 W/m 6,4 km/h (2 Bft) 100,00 %
02.09.2023 14:46 23,0 C 23,3 C 18,9 C 82 % 1021,3 hPa 0,0 l/m 0 min 0 min 282 W/m 12,9 km/h (3 Bft) 100,00 %
02.09.2023 14:48 23,0 C 23,3 C 18,9 C 83 % 1021,3 hPa 0,0 l/m 0 min 0 min 280 W/m 3,2 km/h (1 Bft) 100,00 %
02.09.2023 14:50 23,0 C 23,9 C 18,9 C 83 % 1021,4 hPa 0,0 l/m 0 min 0 min 318 W/m 6,4 km/h (2 Bft) 100,00 %
02.09.2023 14:52 23,0 C 23,9 C 18,9 C 83 % 1021,4 hPa 0,0 l/m 2 min 0 min 379 W/m 3,2 km/h (1 Bft) 97,87 %
02.09.2023 14:54 23,1 C 23,9 C 18,9 C 83 % 1021,3 hPa 0,0 l/m 2 min 0 min 557 W/m 3,2 km/h (1 Bft) 97,87 %
02.09.2023 14:56 23,1 C 25,0 C 18,9 C 83 % 1021,3 hPa 0,0 l/m 2 min 0 min 692 W/m 6,4 km/h (2 Bft) 100,00 %
02.09.2023 14:58 23,2 C 25,0 C 19,4 C 83 % 1021,4 hPa 0,0 l/m 2 min 0 min 594 W/m 6,4 km/h (2 Bft) 100,00 %
02.09.2023 15:00 23,3 C 25,0 C 19,4 C 83 % 1021,4 hPa 0,0 l/m 2 min 0 min 424 W/m 3,2 km/h (1 Bft) 100,00 %
02.09.2023 15:02 23,3 C 25,0 C 19,4 C 81 % 1021,4 hPa 0,0 l/m 2 min 0 min 540 W/m 9,7 km/h (2 Bft) 95,74 %
02.09.2023 15:04 23,4 C 25,0 C 19,4 C 82 % 1021,4 hPa 0,0 l/m 2 min 0 min 841 W/m 12,9 km/h (3 Bft) 100,00 %
02.09.2023 15:06 23,6 C 25,0 C 19,4 C 81 % 1021,4 hPa 0,0 l/m 2 min 0 min 626 W/m 12,9 km/h (3 Bft) 98,31 %
02.09.2023 15:08 23,6 C 24,4 C 19,4 C 80 % 1021,4 hPa 0,0 l/m 2 min 0 min 475 W/m 3,2 km/h (1 Bft) 97,14 %
02.09.2023 15:10 23,6 C 24,4 C 19,4 C 81 % 1021,4 hPa 0,0 l/m 2 min 0 min 448 W/m 6,4 km/h (2 Bft) 100,00 %
02.09.2023 15:12 23,7 C 24,4 C 19,4 C 81 % 1021,4 hPa 0,0 l/m 2 min 0 min 407 W/m 6,4 km/h (2 Bft) 97,87 %
02.09.2023 15:14 23,7 C 24,4 C 19,4 C 79 % 1021,4 hPa 0,0 l/m 2 min 0 min 344 W/m 9,7 km/h (2 Bft) 93,48 %
02.09.2023 15:16 23,7 C 24,4 C 19,4 C 79 % 1021,5 hPa 0,0 l/m 0 min 0 min 325 W/m 12,9 km/h (3 Bft) 97,87 %
02.09.2023 15:18 23,7 C 24,4 C 19,4 C 78 % 1021,5 hPa 0,0 l/m 2 min 0 min 679 W/m 9,7 km/h (2 Bft) 97,87 %
02.09.2023 15:20 23,8 C 24,4 C 19,4 C 80 % 1021,4 hPa 0,0 l/m 2 min 0 min 622 W/m 3,2 km/h (1 Bft) 97,87 %
02.09.2023 15:22 23,8 C 24,4 C 19,4 C 80 % 1021,3 hPa 0,0 l/m 2 min 0 min 557 W/m 6,4 km/h (2 Bft) 95,74 %
02.09.2023 15:24 23,8 C 24,4 C 19,4 C 80 % 1021,3 hPa 0,0 l/m 2 min 0 min 684 W/m 3,2 km/h (1 Bft) 97,87 %
02.09.2023 15:26 23,9 C 25,0 C 19,4 C 81 % 1021,4 hPa 0,0 l/m 2 min 0 min 761 W/m 9,7 km/h (2 Bft) 97,87 %
02.09.2023 15:28 23,9 C 24,4 C 19,4 C 81 % 1021,3 hPa 0,0 l/m 2 min 0 min 399 W/m 6,4 km/h (2 Bft) 95,65 %
02.09.2023 15:30 23,9 C 25,0 C 19,4 C 80 % 1021,3 hPa 0,0 l/m 2 min 0 min 667 W/m 6,4 km/h (2 Bft) 95,74 %
02.09.2023 15:32 24,1 C 25,0 C 19,4 C 80 % 1021,3 hPa 0,0 l/m 2 min 0 min 843 W/m 6,4 km/h (2 Bft) 93,62 %
02.09.2023 15:34 24,1 C 25,0 C 19,4 C 80 % 1021,3 hPa 0,0 l/m 2 min 0 min 346 W/m 3,2 km/h (1 Bft) 93,62 %
02.09.2023 15:36 24,1 C 25,0 C 19,4 C 80 % 1021,4 hPa 0,0 l/m 2 min 0 min 533 W/m 9,7 km/h (2 Bft) 91,49 %
02.09.2023 15:38 24,2 C 25,6 C 19,4 C 79 % 1021,3 hPa 0,0 l/m 2 min 0 min 488 W/m 3,2 km/h (1 Bft) 95,74 %
02.09.2023 15:40 24,2 C 25,0 C 19,4 C 79 % 1021,3 hPa 0,0 l/m 2 min 0 min 471 W/m 6,4 km/h (2 Bft) 93,62 %
02.09.2023 15:42 24,2 C 25,0 C 19,4 C 78 % 1021,4 hPa 0,0 l/m 2 min 0 min 636 W/m 6,4 km/h (2 Bft) 93,48 %
02.09.2023 15:44 24,2 C 25,0 C 20,0 C 78 % 1021,4 hPa 0,0 l/m 2 min 0 min 693 W/m 6,4 km/h (2 Bft) 93,62 %
02.09.2023 15:46 24,3 C 25,0 C 19,4 C 78 % 1021,5 hPa 0,0 l/m 2 min 0 min 642 W/m 9,7 km/h (2 Bft) 93,62 %
02.09.2023 15:48 24,2 C 24,4 C 19,4 C 78 % 1021,5 hPa 0,0 l/m 0 min 0 min 214 W/m 6,4 km/h (2 Bft) 91,49 %
02.09.2023 15:50 24,2 C 24,4 C 19,4 C 79 % 1021,5 hPa 0,0 l/m 2 min 0 min 402 W/m 9,7 km/h (2 Bft) 93,62 %
02.09.2023 15:52 24,1 C 25,0 C 19,4 C 79 % 1021,5 hPa 0,0 l/m 2 min 0 min 700 W/m 3,2 km/h (1 Bft) 93,62 %
02.09.2023 15:54 24,2 C 25,0 C 19,4 C 79 % 1021,6 hPa 0,0 l/m 2 min 0 min 699 W/m 16,1 km/h (3 Bft) 95,74 %
02.09.2023 15:56 24,2 C 25,6 C 19,4 C 80 % 1021,6 hPa 0,0 l/m 2 min 0 min 695 W/m 3,2 km/h (1 Bft) 93,48 %
02.09.2023 15:58 24,3 C 25,6 C 20,0 C 80 % 1021,6 hPa 0,0 l/m 2 min 0 min 686 W/m 9,7 km/h (2 Bft) 95,74 %
02.09.2023 16:00 24,4 C 25,6 C 20,0 C 79 % 1021,6 hPa 0,0 l/m 2 min 0 min 694 W/m 9,7 km/h (2 Bft) 95,74 %
02.09.2023 16:02 24,4 C 25,6 C 20,0 C 78 % 1021,6 hPa 0,0 l/m 2 min 0 min 738 W/m 12,9 km/h (3 Bft) 95,74 %
02.09.2023 16:04 24,5 C 25,6 C 20,0 C 77 % 1021,6 hPa 0,0 l/m 2 min 0 min 675 W/m 9,7 km/h (2 Bft) 95,83 %
02.09.2023 16:06 24,5 C 25,0 C 20,0 C 77 % 1021,6 hPa 0,0 l/m 2 min 0 min 776 W/m 6,4 km/h (2 Bft) 94,29 %
02.09.2023 16:08 24,5 C 25,0 C 20,0 C 77 % 1021,6 hPa 0,0 l/m 2 min 0 min 824 W/m 9,7 km/h (2 Bft) 95,00 %
02.09.2023 16:10 24,6 C 25,0 C 20,0 C 75 % 1021,6 hPa 0,0 l/m 2 min 0 min 438 W/m 9,7 km/h (2 Bft) 93,48 %
02.09.2023 16:12 24,6 C 25,0 C 20,0 C 76 % 1021,6 hPa 0,0 l/m 2 min 0 min 415 W/m 9,7 km/h (2 Bft) 95,74 %
02.09.2023 16:14 24,6 C 24,4 C 20,0 C 76 % 1021,6 hPa 0,0 l/m 2 min 0 min 415 W/m 6,4 km/h (2 Bft) 95,74 %
02.09.2023 16:16 24,6 C 24,4 C 19,4 C 76 % 1021,7 hPa 0,0 l/m 0 min 0 min 178 W/m 3,2 km/h (1 Bft) 95,74 %
02.09.2023 16:18 24,5 C 24,4 C 19,4 C 76 % 1021,7 hPa 0,0 l/m 0 min 0 min 258 W/m 3,2 km/h (1 Bft) 95,74 %
02.09.2023 16:20 24,4 C 24,4 C 19,4 C 76 % 1021,7 hPa 0,0 l/m 2 min 0 min 537 W/m 6,4 km/h (2 Bft) 97,87 %
02.09.2023 16:22 24,4 C 25,0 C 19,4 C 75 % 1021,7 hPa 0,0 l/m 2 min 0 min 537 W/m 6,4 km/h (2 Bft) 97,87 %
02.09.2023 16:24 24,4 C 24,4 C 19,4 C 76 % 1021,7 hPa 0,0 l/m 0 min 0 min 184 W/m 6,4 km/h (2 Bft) 100,00 %
02.09.2023 16:26 24,3 C 24,4 C 19,4 C 76 % 1021,7 hPa 0,0 l/m 0 min 0 min 154 W/m 12,9 km/h (3 Bft) 100,00 %
02.09.2023 16:28 24,2 C 23,9 C 19,4 C 77 % 1021,7 hPa 0,0 l/m 0 min 0 min 157 W/m 12,9 km/h (3 Bft) 97,87 %
02.09.2023 16:30 24,0 C 23,3 C 18,9 C 77 % 1021,7 hPa 0,0 l/m 0 min 0 min 165 W/m 6,4 km/h (2 Bft) 100,00 %
02.09.2023 16:32 23,8 C 22,8 C 18,9 C 78 % 1021,7 hPa 0,0 l/m 0 min 0 min 150 W/m 9,7 km/h (2 Bft) 97,87 %
02.09.2023 16:34 23,8 C 23,3 C 18,9 C 79 % 1021,7 hPa 0,0 l/m 0 min 0 min 252 W/m 3,2 km/h (1 Bft) 100,00 %
02.09.2023 16:36 23,7 C 23,3 C 18,9 C 79 % 1021,7 hPa 0,0 l/m 2 min 0 min 406 W/m 6,4 km/h (2 Bft) 100,00 %
02.09.2023 16:38 23,7 C 23,9 C 18,9 C 80 % 1021,7 hPa 0,0 l/m 2 min 0 min 451 W/m 3,2 km/h (1 Bft) 100,00 %
02.09.2023 16:40 23,7 C 23,9 C 18,9 C 80 % 1021,7 hPa 0,0 l/m 2 min 0 min 504 W/m 16,1 km/h (3 Bft) 100,00 %
02.09.2023 16:42 23,7 C 23,3 C 18,9 C 79 % 1021,6 hPa 0,0 l/m 2 min 0 min 383 W/m 12,9 km/h (3 Bft) 100,00 %
02.09.2023 16:44 23,6 C 23,3 C 18,9 C 79 % 1021,6 hPa 0,0 l/m 0 min 0 min 210 W/m 12,9 km/h (3 Bft) 100,00 %
02.09.2023 16:46 23,6 C 23,3 C 18,9 C 80 % 1021,6 hPa 0,0 l/m 0 min 0 min 204 W/m 12,9 km/h (3 Bft) 100,00 %
02.09.2023 16:48 23,4 C 23,3 C 18,9 C 81 % 1021,6 hPa 0,0 l/m 0 min 0 min 203 W/m 12,9 km/h (3 Bft) 100,00 %
02.09.2023 16:50 23,4 C 23,3 C 18,9 C 81 % 1021,6 hPa 0,0 l/m 0 min 0 min 198 W/m 6,4 km/h (2 Bft) 100,00 %
02.09.2023 16:52 23,3 C 22,8 C 18,3 C 81 % 1021,5 hPa 0,0 l/m 0 min 0 min 217 W/m 6,4 km/h (2 Bft) 100,00 %
02.09.2023 16:54 23,3 C 22,8 C 18,3 C 82 % 1021,6 hPa 0,0 l/m 0 min 0 min 194 W/m 6,4 km/h (2 Bft) 100,00 %
02.09.2023 16:56 23,2 C 22,8 C 18,3 C 82 % 1021,6 hPa 0,0 l/m 0 min 0 min 183 W/m 6,4 km/h (2 Bft) 100,00 %
02.09.2023 16:58 23,2 C 22,8 C 18,3 C 82 % 1021,6 hPa 0,0 l/m 0 min 0 min 181 W/m 3,2 km/h (1 Bft) 95,74 %
02.09.2023 17:00 23,2 C 22,8 C 18,3 C 82 % 1021,6 hPa 0,0 l/m 0 min 0 min 173 W/m 6,4 km/h (2 Bft) 100,00 %
02.09.2023 17:02 23,1 C 22,8 C 18,3 C 82 % 1021,6 hPa 0,0 l/m 0 min 0 min 181 W/m 6,4 km/h (2 Bft) 100,00 %
02.09.2023 17:04 23,0 C 22,8 C 18,3 C 82 % 1021,6 hPa 0,0 l/m 0 min 0 min 198 W/m 9,7 km/h (2 Bft) 100,00 %
02.09.2023 17:06 22,9 C 22,8 C 18,3 C 82 % 1021,6 hPa 0,0 l/m 0 min 0 min 195 W/m 6,4 km/h (2 Bft) 100,00 %
02.09.2023 17:08 22,9 C 22,8 C 18,3 C 83 % 1021,6 hPa 0,0 l/m 0 min 0 min 179 W/m 6,4 km/h (2 Bft) 97,87 %
02.09.2023 17:10 22,9 C 22,8 C 18,3 C 83 % 1021,7 hPa 0,0 l/m 0 min 0 min 172 W/m 9,7 km/h (2 Bft) 100,00 %
02.09.2023 17:12 22,9 C 22,8 C 18,3 C 84 % 1021,6 hPa 0,0 l/m 0 min 0 min 172 W/m 3,2 km/h (1 Bft) 100,00 %
02.09.2023 17:14 22,9 C 22,8 C 18,3 C 84 % 1021,7 hPa 0,0 l/m 0 min 0 min 126 W/m 12,9 km/h (3 Bft) 97,87 %
02.09.2023 17:16 22,8 C 22,8 C 18,3 C 84 % 1021,6 hPa 0,0 l/m 0 min 0 min 168 W/m 3,2 km/h (1 Bft) 100,00 %
02.09.2023 17:18 22,8 C 23,3 C 18,3 C 84 % 1021,7 hPa 0,0 l/m 2 min 0 min 272 W/m 6,4 km/h (2 Bft) 100,00 %
02.09.2023 17:20 22,9 C 23,9 C 18,3 C 84 % 1021,7 hPa 0,0 l/m 2 min 0 min 366 W/m 6,4 km/h (2 Bft) 100,00 %
02.09.2023 17:22 22,9 C 23,9 C 18,3 C 84 % 1021,7 hPa 0,0 l/m 2 min 0 min 261 W/m 12,9 km/h (3 Bft) 100,00 %
02.09.2023 17:24 22,9 C 23,9 C 18,3 C 84 % 1021,8 hPa 0,0 l/m 2 min 0 min 332 W/m 6,4 km/h (2 Bft) 100,00 %
02.09.2023 17:26 22,9 C 24,4 C 18,3 C 85 % 1021,8 hPa 0,0 l/m 2 min 0 min 337 W/m 6,4 km/h (2 Bft) 98,00 %
02.09.2023 17:28 22,9 C 24,4 C 18,3 C 84 % 1021,7 hPa 0,0 l/m 2 min 0 min 354 W/m 12,9 km/h (3 Bft) 100,00 %
02.09.2023 17:30 23,0 C 24,4 C 18,3 C 85 % 1021,7 hPa 0,0 l/m 2 min 0 min 305 W/m 6,4 km/h (2 Bft) 100,00 %
02.09.2023 17:32 22,9 C 24,4 C 18,3 C 84 % 1021,7 hPa 0,0 l/m 2 min 0 min 327 W/m 3,2 km/h (1 Bft) 100,00 %
02.09.2023 17:34 22,9 C 23,9 C 18,3 C 84 % 1021,7 hPa 0,0 l/m 2 min 0 min 230 W/m 12,9 km/h (3 Bft) 100,00 %
02.09.2023 17:36 22,8 C 23,9 C 18,3 C 84 % 1021,7 hPa 0,0 l/m 0 min 0 min 192 W/m 6,4 km/h (2 Bft) 100,00 %
02.09.2023 17:38 22,8 C 23,9 C 18,3 C 84 % 1021,6 hPa 0,0 l/m 2 min 0 min 224 W/m 6,4 km/h (2 Bft) 97,87 %
02.09.2023 17:40 22,8 C 23,9 C 18,3 C 84 % 1021,6 hPa 0,0 l/m 0 min 0 min 187 W/m 6,4 km/h (2 Bft) 100,00 %
02.09.2023 17:42 22,8 C 23,9 C 18,3 C 84 % 1021,6 hPa 0,0 l/m 2 min 0 min 223 W/m 6,4 km/h (2 Bft) 97,87 %
02.09.2023 17:44 22,8 C 23,9 C 18,3 C 84 % 1021,6 hPa 0,0 l/m 2 min 0 min 302 W/m 12,9 km/h (3 Bft) 100,00 %
02.09.2023 17:46 22,7 C 24,4 C 18,3 C 84 % 1021,6 hPa 0,0 l/m 2 min 0 min 333 W/m 9,7 km/h (2 Bft) 97,87 %
02.09.2023 17:48 22,7 C 25,0 C 18,3 C 84 % 1021,6 hPa 0,0 l/m 2 min 0 min 322 W/m 9,7 km/h (2 Bft) 95,74 %
02.09.2023 17:50 22,8 C 25,0 C 18,3 C 85 % 1021,7 hPa 0,0 l/m 2 min 0 min 309 W/m 6,4 km/h (2 Bft) 91,49 %
02.09.2023 17:52 22,8 C 25,0 C 18,3 C 84 % 1021,6 hPa 0,0 l/m 2 min 0 min 331 W/m 12,9 km/h (3 Bft) 95,65 %
02.09.2023 17:54 22,8 C 25,0 C 18,3 C 84 % 1021,6 hPa 0,0 l/m 2 min 0 min 322 W/m 12,9 km/h (3 Bft) 95,74 %
02.09.2023 17:56 22,8 C 25,0 C 18,9 C 84 % 1021,6 hPa 0,0 l/m 2 min 0 min 315 W/m 16,1 km/h (3 Bft) 95,74 %
02.09.2023 17:58 22,8 C 25,0 C 18,9 C 84 % 1021,7 hPa 0,0 l/m 2 min 0 min 219 W/m 3,2 km/h (1 Bft) 95,74 %
02.09.2023 18:00 22,8 C 24,4 C 18,3 C 84 % 1021,7 hPa 0,0 l/m 0 min 0 min 158 W/m 9,7 km/h (2 Bft) 95,74 %
02.09.2023 18:02 22,9 C 25,6 C 18,9 C 84 % 1021,7 hPa 0,0 l/m 2 min 0 min 289 W/m 9,7 km/h (2 Bft) 95,74 %
02.09.2023 18:04 22,9 C 26,1 C 18,9 C 84 % 1021,7 hPa 0,0 l/m 2 min 0 min 306 W/m 6,4 km/h (2 Bft) 95,83 %
02.09.2023 18:08 22,9 C 25,6 C 18,9 C 83 % 1021,7 hPa 0,0 l/m 4 min 0 min 298 W/m 16,1 km/h (3 Bft) 94,68 %
02.09.2023 18:10 22,9 C 25,6 C 18,9 C 83 % 1021,8 hPa 0,0 l/m 2 min 0 min 288 W/m 9,7 km/h (2 Bft) 95,74 %
02.09.2023 18:12 22,9 C 25,6 C 18,9 C 84 % 1021,8 hPa 0,0 l/m 2 min 0 min 279 W/m 3,2 km/h (1 Bft) 95,74 %
02.09.2023 18:14 22,9 C 26,1 C 18,9 C 84 % 1021,8 hPa 0,0 l/m 2 min 0 min 270 W/m 6,4 km/h (2 Bft) 95,74 %
02.09.2023 18:16 22,9 C 25,6 C 18,9 C 84 % 1021,9 hPa 0,0 l/m 2 min 0 min 259 W/m 9,7 km/h (2 Bft) 95,74 %
02.09.2023 18:18 23,1 C 26,1 C 18,9 C 84 % 1021,9 hPa 0,0 l/m 2 min 0 min 261 W/m 6,4 km/h (2 Bft) 95,74 %
02.09.2023 18:20 23,1 C 26,1 C 19,4 C 83 % 1021,9 hPa 0,0 l/m 2 min 0 min 249 W/m 9,7 km/h (2 Bft) 97,83 %
02.09.2023 18:22 23,2 C 26,1 C 19,4 C 83 % 1021,9 hPa 0,0 l/m 2 min 0 min 228 W/m 6,4 km/h (2 Bft) 97,87 %
02.09.2023 18:24 23,3 C 26,7 C 19,4 C 83 % 1022,0 hPa 0,0 l/m 2 min 0 min 227 W/m 6,4 km/h (2 Bft) 95,74 %
02.09.2023 18:26 23,4 C 26,7 C 19,4 C 82 % 1022,0 hPa 0,0 l/m 2 min 0 min 230 W/m 3,2 km/h (1 Bft) 95,74 %
02.09.2023 18:28 23,5 C 27,2 C 19,4 C 82 % 1022,0 hPa 0,0 l/m 2 min 0 min 220 W/m 6,4 km/h (2 Bft) 97,87 %
02.09.2023 18:30 23,6 C 26,7 C 19,4 C 81 % 1022,1 hPa 0,0 l/m 2 min 0 min 211 W/m 6,4 km/h (2 Bft) 97,87 %
02.09.2023 18:32 23,7 C 27,2 C 19,4 C 82 % 1022,1 hPa 0,0 l/m 2 min 0 min 206 W/m 3,2 km/h (1 Bft) 100,00 %
02.09.2023 18:34 23,8 C 27,2 C 19,4 C 81 % 1022,1 hPa 0,0 l/m 2 min 0 min 199 W/m 6,4 km/h (2 Bft) 100,00 %
02.09.2023 18:36 24,0 C 27,2 C 19,4 C 81 % 1022,1 hPa 0,0 l/m 2 min 0 min 194 W/m 3,2 km/h (1 Bft) 95,74 %
02.09.2023 18:38 24,1 C 27,2 C 19,4 C 80 % 1022,1 hPa 0,0 l/m 2 min 0 min 187 W/m 3,2 km/h (1 Bft) 100,00 %
02.09.2023 18:40 24,1 C 26,7 C 19,4 C 79 % 1022,1 hPa 0,0 l/m 2 min 0 min 181 W/m 6,4 km/h (2 Bft) 97,87 %
02.09.2023 18:42 24,1 C 26,7 C 19,4 C 80 % 1022,1 hPa 0,0 l/m 2 min 0 min 171 W/m 6,4 km/h (2 Bft) 100,00 %
02.09.2023 18:44 23,9 C 26,1 C 18,9 C 79 % 1022,1 hPa 0,0 l/m 2 min 0 min 166 W/m 16,1 km/h (3 Bft) 97,87 %
02.09.2023 18:46 23,9 C 25,0 C 18,9 C 80 % 1022,1 hPa 0,0 l/m 2 min 0 min 142 W/m 3,2 km/h (1 Bft) 95,74 %
02.09.2023 18:48 23,9 C 24,4 C 18,9 C 80 % 1022,2 hPa 0,0 l/m 0 min 0 min 71 W/m 3,2 km/h (1 Bft) 95,65 %
02.09.2023 18:50 23,8 C 23,9 C 18,9 C 80 % 1022,2 hPa 0,0 l/m 0 min 0 min 63 W/m 6,4 km/h (2 Bft) 97,87 %
02.09.2023 18:52 23,8 C 23,9 C 18,9 C 80 % 1022,3 hPa 0,0 l/m 0 min 0 min 62 W/m 0,0 km/h (0 Bft) 95,74 %
02.09.2023 18:54 23,7 C 23,3 C 18,3 C 80 % 1022,3 hPa 0,0 l/m 0 min 0 min 62 W/m 0,0 km/h (0 Bft) 97,87 %
02.09.2023 18:56 23,4 C 23,3 C 18,3 C 80 % 1022,3 hPa 0,0 l/m 0 min 0 min 61 W/m 6,4 km/h (2 Bft) 95,74 %
02.09.2023 18:58 23,3 C 22,8 C 18,3 C 81 % 1022,4 hPa 0,0 l/m 0 min 0 min 58 W/m 0,0 km/h (0 Bft) 95,74 %
02.09.2023 19:00 23,2 C 22,8 C 18,3 C 81 % 1022,2 hPa 0,0 l/m 0 min 0 min 58 W/m 6,4 km/h (2 Bft) 97,87 %
02.09.2023 19:02 23,1 C 22,8 C 18,3 C 81 % 1022,3 hPa 0,0 l/m 0 min 0 min 58 W/m 3,2 km/h (1 Bft) 97,83 %
02.09.2023 19:04 23,0 C 22,2 C 17,8 C 82 % 1022,3 hPa 0,0 l/m 0 min 0 min 58 W/m 3,2 km/h (1 Bft) 98,00 %
02.09.2023 19:06 22,8 C 22,2 C 17,8 C 82 % 1022,4 hPa 0,0 l/m 0 min 0 min 57 W/m 9,7 km/h (2 Bft) 97,92 %
02.09.2023 19:08 22,7 C 22,2 C 17,8 C 82 % 1022,4 hPa 0,0 l/m 0 min 0 min 56 W/m 6,4 km/h (2 Bft) 97,87 %
02.09.2023 19:10 22,6 C 22,2 C 17,8 C 82 % 1022,4 hPa 0,0 l/m 0 min 0 min 56 W/m 3,2 km/h (1 Bft) 97,37 %
02.09.2023 19:12 22,5 C 22,2 C 17,8 C 83 % 1022,4 hPa 0,0 l/m 0 min 0 min 55 W/m 9,7 km/h (2 Bft) 97,87 %
02.09.2023 19:14 22,4 C 22,2 C 17,8 C 83 % 1022,4 hPa 0,0 l/m 0 min 0 min 54 W/m 9,7 km/h (2 Bft) 98,00 %
02.09.2023 19:16 22,3 C 21,7 C 17,2 C 83 % 1022,4 hPa 0,0 l/m 0 min 0 min 52 W/m 6,4 km/h (2 Bft) 97,87 %
02.09.2023 19:18 22,2 C 21,7 C 17,2 C 83 % 1022,4 hPa 0,0 l/m 0 min 0 min 48 W/m 3,2 km/h (1 Bft) 97,83 %
02.09.2023 19:20 22,2 C 21,7 C 17,2 C 83 % 1022,4 hPa 0,0 l/m 0 min 0 min 44 W/m 9,7 km/h (2 Bft) 97,87 %
02.09.2023 19:22 22,1 C 21,7 C 17,2 C 84 % 1022,3 hPa 0,0 l/m 0 min 0 min 40 W/m 6,4 km/h (2 Bft) 97,87 %
02.09.2023 19:24 22,0 C 21,1 C 17,2 C 84 % 1022,3 hPa 0,0 l/m 0 min 0 min 36 W/m 6,4 km/h (2 Bft) 97,87 %
02.09.2023 19:26 21,9 C 21,1 C 17,2 C 84 % 1022,3 hPa 0,0 l/m 0 min 0 min 29 W/m 6,4 km/h (2 Bft) 97,87 %
02.09.2023 19:28 21,8 C 21,1 C 17,2 C 84 % 1022,3 hPa 0,0 l/m 0 min 0 min 24 W/m 3,2 km/h (1 Bft) 95,74 %
02.09.2023 19:30 21,8 C 21,1 C 17,2 C 84 % 1022,3 hPa 0,0 l/m 0 min 0 min 24 W/m 3,2 km/h (1 Bft) 95,74 %
02.09.2023 19:32 21,7 C 20,6 C 16,7 C 85 % 1022,3 hPa 0,0 l/m 0 min 0 min 23 W/m 3,2 km/h (1 Bft) 97,83 %
02.09.2023 19:34 21,7 C 20,6 C 16,7 C 85 % 1022,3 hPa 0,0 l/m 0 min 0 min 21 W/m 6,4 km/h (2 Bft) 97,87 %
02.09.2023 19:36 21,6 C 20,6 C 16,7 C 85 % 1022,4 hPa 0,0 l/m 0 min 0 min 18 W/m 3,2 km/h (1 Bft) 100,00 %
02.09.2023 19:38 21,6 C 20,6 C 16,7 C 85 % 1022,4 hPa 0,0 l/m 0 min 0 min 16 W/m 3,2 km/h (1 Bft) 100,00 %
02.09.2023 19:40 21,6 C 20,6 C 16,7 C 85 % 1022,3 hPa 0,0 l/m 0 min 0 min 16 W/m 6,4 km/h (2 Bft) 97,87 %
02.09.2023 19:42 21,5 C 20,6 C 16,7 C 85 % 1022,3 hPa 0,0 l/m 0 min 0 min 14 W/m 3,2 km/h (1 Bft) 100,00 %
02.09.2023 19:44 21,4 C 20,6 C 16,7 C 85 % 1022,3 hPa 0,0 l/m 0 min 0 min 13 W/m 0,0 km/h (0 Bft) 97,83 %
02.09.2023 19:46 21,4 C 20,6 C 16,7 C 86 % 1022,3 hPa 0,0 l/m 0 min 0 min 12 W/m 9,7 km/h (2 Bft) 97,87 %
02.09.2023 19:48 21,3 C 20,0 C 16,7 C 85 % 1022,4 hPa 0,0 l/m 0 min 0 min 12 W/m 3,2 km/h (1 Bft) 97,87 %
02.09.2023 19:50 21,3 C 20,0 C 16,1 C 85 % 1022,4 hPa 0,0 l/m 0 min 0 min 12 W/m 0,0 km/h (0 Bft) 97,87 %
02.09.2023 19:52 21,2 C 20,0 C 16,1 C 85 % 1022,4 hPa 0,0 l/m 0 min 0 min 11 W/m 3,2 km/h (1 Bft) 97,87 %
02.09.2023 19:54 21,2 C 20,0 C 16,1 C 85 % 1022,4 hPa 0,0 l/m 0 min 0 min 11 W/m 6,4 km/h (2 Bft) 97,87 %
02.09.2023 19:56 21,1 C 20,0 C 16,1 C 85 % 1022,4 hPa 0,0 l/m 0 min 0 min 11 W/m 0,0 km/h (0 Bft) 97,87 %
02.09.2023 19:58 21,1 C 20,0 C 16,1 C 86 % 1022,5 hPa 0,0 l/m 0 min 0 min 11 W/m 3,2 km/h (1 Bft) 97,87 %
02.09.2023 20:00 21,1 C 20,0 C 16,1 C 85 % 1022,5 hPa 0,0 l/m 0 min 0 min 9 W/m 3,2 km/h (1 Bft) 97,83 %
02.09.2023 20:02 21,0 C 20,0 C 16,1 C 85 % 1022,5 hPa 0,0 l/m 0 min 0 min 9 W/m 0,0 km/h (0 Bft) 97,87 %
02.09.2023 20:04 20,9 C 20,0 C 16,1 C 85 % 1022,6 hPa 0,0 l/m 0 min 0 min 9 W/m 0,0 km/h (0 Bft) 97,62 %
02.09.2023 20:06 20,9 C 19,4 C 16,1 C 86 % 1022,7 hPa 0,0 l/m 0 min 0 min 7 W/m 3,2 km/h (1 Bft) 96,92 %
02.09.2023 20:08 20,8 C 19,4 C 16,1 C 86 % 1022,7 hPa 0,0 l/m 0 min 0 min 6 W/m 0,0 km/h (0 Bft) 97,14 %
02.09.2023 20:10 20,8 C 19,4 C 15,6 C 86 % 1022,7 hPa 0,0 l/m 0 min 0 min 5 W/m 0,0 km/h (0 Bft) 97,87 %
02.09.2023 20:12 20,8 C 19,4 C 15,6 C 86 % 1022,7 hPa 0,0 l/m 0 min 0 min 5 W/m 0,0 km/h (0 Bft) 97,87 %
02.09.2023 20:14 20,7 C 19,4 C 15,6 C 86 % 1022,7 hPa 0,0 l/m 0 min 0 min 3 W/m 0,0 km/h (0 Bft) 93,48 %
02.09.2023 20:16 20,7 C 19,4 C 15,6 C 86 % 1022,8 hPa 0,0 l/m 0 min 0 min 0 W/m 0,0 km/h (0 Bft) 97,87 %
02.09.2023 20:18 20,6 C 19,4 C 15,6 C 86 % 1022,9 hPa 0,0 l/m 0 min 0 min 0 W/m 0,0 km/h (0 Bft) 97,87 %
02.09.2023 20:20 20,6 C 18,9 C 15,6 C 86 % 1022,9 hPa 0,0 l/m 0 min 0 min 0 W/m 0,0 km/h (0 Bft) 100,00 %
02.09.2023 20:22 20,6 C 18,9 C 15,6 C 86 % 1023,0 hPa 0,0 l/m 0 min 0 min 0 W/m 0,0 km/h (0 Bft) 100,00 %
02.09.2023 20:24 20,5 C 18,9 C 15,6 C 87 % 1023,0 hPa 0,0 l/m 0 min 0 min 0 W/m 0,0 km/h (0 Bft) 100,00 %
02.09.2023 20:26 20,5 C 18,9 C 15,6 C 87 % 1023,0 hPa 0,0 l/m 0 min 0 min 0 W/m 0,0 km/h (0 Bft) 93,48 %
02.09.2023 20:28 20,5 C 18,9 C 15,6 C 87 % 1023,0 hPa 0,0 l/m 0 min 0 min 0 W/m 0,0 km/h (0 Bft) 97,62 %
02.09.2023 20:30 20,4 C 18,9 C 15,0 C 87 % 1023,1 hPa 0,0 l/m 0 min 0 min 0 W/m 0,0 km/h (0 Bft) 97,83 %
02.09.2023 20:32 20,4 C 18,9 C 15,0 C 87 % 1023,0 hPa 0,0 l/m 0 min 0 min 0 W/m 0,0 km/h (0 Bft) 95,74 %
02.09.2023 20:34 20,3 C 18,9 C 15,0 C 87 % 1023,0 hPa 0,0 l/m 0 min 0 min 0 W/m 0,0 km/h (0 Bft) 97,87 %
02.09.2023 20:36 20,3 C 18,9 C 15,0 C 87 % 1023,1 hPa 0,0 l/m 0 min 0 min 0 W/m 0,0 km/h (0 Bft) 97,87 %
02.09.2023 20:38 20,3 C 18,9 C 15,0 C 88 % 1023,1 hPa 0,0 l/m 0 min 0 min 0 W/m 0,0 km/h (0 Bft) 97,87 %
02.09.2023 20:40 20,2 C 18,9 C 15,0 C 88 % 1023,2 hPa 0,0 l/m 0 min 0 min 0 W/m 0,0 km/h (0 Bft) 97,87 %
02.09.2023 20:42 20,2 C 18,9 C 15,0 C 88 % 1023,2 hPa 0,0 l/m 0 min 0 min 0 W/m 0,0 km/h (0 Bft) 97,87 %
02.09.2023 20:44 20,1 C 18,9 C 15,0 C 88 % 1023,3 hPa 0,0 l/m 0 min 0 min 0 W/m 0,0 km/h (0 Bft) 97,83 %
02.09.2023 20:46 20,1 C 18,9 C 15,0 C 88 % 1023,3 hPa 0,0 l/m 0 min 0 min 0 W/m 0,0 km/h (0 Bft) 95,74 %
02.09.2023 20:48 20,0 C 18,9 C 15,0 C 88 % 1023,3 hPa 0,0 l/m 0 min 0 min 0 W/m 0,0 km/h (0 Bft) 97,87 %
02.09.2023 20:50 19,9 C 18,9 C 15,0 C 88 % 1023,3 hPa 0,0 l/m 0 min 0 min 0 W/m 0,0 km/h (0 Bft) 97,87 %
02.09.2023 20:52 19,9 C 18,9 C 15,0 C 88 % 1023,3 hPa 0,0 l/m 0 min 0 min 0 W/m 0,0 km/h (0 Bft) 97,87 %
02.09.2023 20:54 19,8 C 18,9 C 15,0 C 88 % 1023,4 hPa 0,0 l/m 0 min 0 min 0 W/m 0,0 km/h (0 Bft) 97,87 %
02.09.2023 20:56 19,8 C 18,9 C 15,0 C 88 % 1023,4 hPa 0,0 l/m 0 min 0 min 0 W/m 0,0 km/h (0 Bft) 97,87 %
02.09.2023 20:58 19,8 C 18,9 C 15,0 C 88 % 1023,4 hPa 0,0 l/m 0 min 0 min 0 W/m 3,2 km/h (1 Bft) 97,83 %
02.09.2023 21:00 19,8 C 18,9 C 15,0 C 88 % 1023,4 hPa 0,0 l/m 0 min 0 min 0 W/m 3,2 km/h (1 Bft) 96,23 %
02.09.2023 21:02 19,7 C 18,9 C 15,0 C 89 % 1023,5 hPa 0,0 l/m 0 min 0 min 0 W/m 0,0 km/h (0 Bft) 95,74 %
02.09.2023 21:04 19,7 C 18,3 C 15,0 C 89 % 1023,4 hPa 0,0 l/m 0 min 0 min 0 W/m 0,0 km/h (0 Bft) 95,56 %
02.09.2023 21:06 19,7 C 18,3 C 15,0 C 89 % 1023,5 hPa 0,0 l/m 0 min 0 min 0 W/m 0,0 km/h (0 Bft) 98,28 %
02.09.2023 21:08 19,6 C 18,3 C 15,0 C 89 % 1023,6 hPa 0,0 l/m 0 min 0 min 0 W/m 0,0 km/h (0 Bft) 97,22 %
02.09.2023 21:10 19,6 C 18,3 C 15,0 C 89 % 1023,6 hPa 0,0 l/m 0 min 0 min 0 W/m 0,0 km/h (0 Bft) 95,65 %
02.09.2023 21:12 19,6 C 18,3 C 15,0 C 89 % 1023,6 hPa 0,0 l/m 0 min 0 min 0 W/m 0,0 km/h (0 Bft) 93,62 %
02.09.2023 21:14 19,6 C 18,3 C 15,0 C 89 % 1023,5 hPa 0,0 l/m 0 min 0 min 0 W/m 0,0 km/h (0 Bft) 97,87 %
02.09.2023 21:16 19,5 C 18,3 C 15,0 C 89 % 1023,6 hPa 0,0 l/m 0 min 0 min 0 W/m 0,0 km/h (0 Bft) 97,87 %
02.09.2023 21:18 19,5 C 18,3 C 14,4 C 89 % 1023,6 hPa 0,0 l/m 0 min 0 min 0 W/m 0,0 km/h (0 Bft) 100,00 %
02.09.2023 21:20 19,4 C 18,3 C 14,4 C 89 % 1023,5 hPa 0,0 l/m 0 min 0 min 0 W/m 0,0 km/h (0 Bft) 97,87 %
02.09.2023 21:22 19,4 C 18,3 C 14,4 C 89 % 1023,5 hPa 0,0 l/m 0 min 0 min 0 W/m 0,0 km/h (0 Bft) 97,87 %
02.09.2023 21:24 19,4 C 17,8 C 14,4 C 89 % 1023,5 hPa 0,0 l/m 0 min 0 min 0 W/m 3,2 km/h (1 Bft) 100,00 %
02.09.2023 21:26 19,4 C 17,8 C 14,4 C 89 % 1023,6 hPa 0,0 l/m 0 min 0 min 0 W/m 0,0 km/h (0 Bft) 100,00 %
02.09.2023 21:28 19,4 C 17,8 C 14,4 C 90 % 1023,6 hPa 0,0 l/m 0 min 0 min 0 W/m 0,0 km/h (0 Bft) 100,00 %
02.09.2023 21:30 19,3 C 17,8 C 14,4 C 90 % 1023,6 hPa 0,0 l/m 0 min 0 min 0 W/m 0,0 km/h (0 Bft) 95,74 %
02.09.2023 21:32 19,3 C 17,8 C 14,4 C 90 % 1023,5 hPa 0,0 l/m 0 min 0 min 0 W/m 0,0 km/h (0 Bft) 97,87 %
02.09.2023 21:34 19,3 C 17,8 C 14,4 C 90 % 1023,5 hPa 0,0 l/m 0 min 0 min 0 W/m 0,0 km/h (0 Bft) 97,87 %
02.09.2023 21:36 19,2 C 17,8 C 14,4 C 90 % 1023,5 hPa 0,0 l/m 0 min 0 min 0 W/m 0,0 km/h (0 Bft) 95,74 %
02.09.2023 21:38 19,2 C 17,8 C 14,4 C 90 % 1023,6 hPa 0,0 l/m 0 min 0 min 0 W/m 0,0 km/h (0 Bft) 95,65 %
02.09.2023 21:40 19,2 C 17,8 C 14,4 C 90 % 1023,6 hPa 0,0 l/m 0 min 0 min 0 W/m 0,0 km/h (0 Bft) 93,62 %
02.09.2023 21:42 19,2 C 17,8 C 14,4 C 90 % 1023,7 hPa 0,0 l/m 0 min 0 min 0 W/m 0,0 km/h (0 Bft) 93,62 %
02.09.2023 21:44 19,1 C 17,8 C 14,4 C 90 % 1023,6 hPa 0,0 l/m 0 min 0 min 0 W/m 0,0 km/h (0 Bft) 93,62 %
02.09.2023 21:46 19,1 C 17,8 C 14,4 C 90 % 1023,7 hPa 0,0 l/m 0 min 0 min 0 W/m 0,0 km/h (0 Bft) 95,74 %
02.09.2023 21:48 19,1 C 17,8 C 14,4 C 90 % 1023,7 hPa 0,0 l/m 0 min 0 min 0 W/m 0,0 km/h (0 Bft) 93,62 %
02.09.2023 21:50 19,1 C 17,8 C 14,4 C 90 % 1023,7 hPa 0,0 l/m 0 min 0 min 0 W/m 0,0 km/h (0 Bft) 95,74 %
02.09.2023 21:52 19,0 C 17,8 C 13,9 C 91 % 1023,7 hPa 0,0 l/m 0 min 0 min 0 W/m 0,0 km/h (0 Bft) 95,65 %
02.09.2023 21:54 19,0 C 17,8 C 13,9 C 91 % 1023,7 hPa 0,0 l/m 0 min 0 min 0 W/m 0,0 km/h (0 Bft) 95,74 %
02.09.2023 21:56 18,9 C 17,8 C 13,9 C 91 % 1023,7 hPa 0,0 l/m 0 min 0 min 0 W/m 0,0 km/h (0 Bft) 89,36 %
02.09.2023 21:58 18,9 C 17,2 C 13,9 C 91 % 1023,7 hPa 0,0 l/m 0 min 0 min 0 W/m 0,0 km/h (0 Bft) 95,74 %
02.09.2023 22:00 18,9 C 17,2 C 13,9 C 91 % 1023,8 hPa 0,0 l/m 0 min 0 min 0 W/m 0,0 km/h (0 Bft) 95,74 %
02.09.2023 22:02 18,8 C 17,2 C 13,9 C 91 % 1023,7 hPa 0,0 l/m 0 min 0 min 0 W/m 0,0 km/h (0 Bft) 95,74 %
02.09.2023 22:04 18,8 C 17,2 C 13,9 C 91 % 1023,8 hPa 0,0 l/m 0 min 0 min 0 W/m 0,0 km/h (0 Bft) 95,92 %
02.09.2023 22:06 18,8 C 17,2 C 13,9 C 91 % 1023,8 hPa 0,0 l/m 0 min 0 min 0 W/m 0,0 km/h (0 Bft) 95,65 %
02.09.2023 22:08 18,8 C 17,2 C 13,9 C 91 % 1023,8 hPa 0,0 l/m 0 min 0 min 0 W/m 0,0 km/h (0 Bft) 100,00 %
02.09.2023 22:10 18,7 C 17,2 C 13,9 C 91 % 1023,9 hPa 0,0 l/m 0 min 0 min 0 W/m 0,0 km/h (0 Bft) 97,87 %
02.09.2023 22:12 18,7 C 17,2 C 13,9 C 91 % 1023,9 hPa 0,0 l/m 0 min 0 min 0 W/m 0,0 km/h (0 Bft) 100,00 %
02.09.2023 22:14 18,7 C 17,2 C 13,3 C 91 % 1023,9 hPa 0,0 l/m 0 min 0 min 0 W/m 0,0 km/h (0 Bft) 100,00 %
02.09.2023 22:16 18,6 C 16,7 C 13,3 C 91 % 1023,9 hPa 0,0 l/m 0 min 0 min 0 W/m 0,0 km/h (0 Bft) 97,87 %
02.09.2023 22:18 18,6 C 16,7 C 13,3 C 91 % 1023,9 hPa 0,0 l/m 0 min 0 min 0 W/m 0,0 km/h (0 Bft) 97,87 %
02.09.2023 22:20 18,6 C 16,7 C 13,3 C 91 % 1023,8 hPa 0,0 l/m 0 min 0 min 0 W/m 0,0 km/h (0 Bft) 100,00 %
02.09.2023 22:22 18,5 C 16,7 C 13,3 C 92 % 1023,9 hPa 0,0 l/m 0 min 0 min 0 W/m 0,0 km/h (0 Bft) 100,00 %
02.09.2023 22:24 18,5 C 16,7 C 13,3 C 91 % 1023,9 hPa 0,0 l/m 0 min 0 min 0 W/m 0,0 km/h (0 Bft) 100,00 %
02.09.2023 22:26 18,4 C 16,7 C 13,3 C 92 % 1023,9 hPa 0,0 l/m 0 min 0 min 0 W/m 0,0 km/h (0 Bft) 100,00 %
02.09.2023 22:28 18,4 C 16,7 C 13,3 C 92 % 1023,9 hPa 0,0 l/m 0 min 0 min 0 W/m 0,0 km/h (0 Bft) 100,00 %
02.09.2023 22:30 18,4 C 16,7 C 13,3 C 92 % 1023,9 hPa 0,0 l/m 0 min 0 min 0 W/m 0,0 km/h (0 Bft) 97,87 %
02.09.2023 22:32 18,3 C 16,7 C 13,3 C 92 % 1023,9 hPa 0,0 l/m 0 min 0 min 0 W/m 0,0 km/h (0 Bft) 97,87 %
02.09.2023 22:34 18,3 C 16,7 C 13,3 C 92 % 1023,9 hPa 0,0 l/m 0 min 0 min 0 W/m 0,0 km/h (0 Bft) 100,00 %
02.09.2023 22:36 18,3 C 16,7 C 13,3 C 92 % 1024,0 hPa 0,0 l/m 0 min 0 min 0 W/m 0,0 km/h (0 Bft) 100,00 %
02.09.2023 22:38 18,2 C 16,7 C 13,3 C 92 % 1023,9 hPa 0,0 l/m 0 min 0 min 0 W/m 0,0 km/h (0 Bft) 97,87 %
02.09.2023 22:40 18,2 C 16,7 C 13,3 C 92 % 1024,0 hPa 0,0 l/m 0 min 0 min 0 W/m 0,0 km/h (0 Bft) 100,00 %
02.09.2023 22:42 18,2 C 16,7 C 13,3 C 93 % 1024,1 hPa 0,0 l/m 0 min 0 min 0 W/m 0,0 km/h (0 Bft) 100,00 %
02.09.2023 22:44 18,2 C 16,7 C 13,3 C 92 % 1024,1 hPa 0,0 l/m 0 min 0 min 0 W/m 0,0 km/h (0 Bft) 95,74 %
02.09.2023 22:46 18,1 C 16,7 C 13,3 C 93 % 1024,1 hPa 0,0 l/m 0 min 0 min 0 W/m 0,0 km/h (0 Bft) 100,00 %
02.09.2023 22:48 18,1 C 16,7 C 13,3 C 93 % 1024,1 hPa 0,0 l/m 0 min 0 min 0 W/m 0,0 km/h (0 Bft) 100,00 %
02.09.2023 22:50 18,1 C 16,7 C 13,3 C 93 % 1024,1 hPa 0,0 l/m 0 min 0 min 0 W/m 0,0 km/h (0 Bft) 97,83 %
02.09.2023 22:52 18,1 C 16,7 C 13,3 C 93 % 1024,2 hPa 0,0 l/m 0 min 0 min 0 W/m 0,0 km/h (0 Bft) 100,00 %
02.09.2023 22:54 18,1 C 16,7 C 13,3 C 93 % 1024,3 hPa 0,0 l/m 0 min 0 min 0 W/m 0,0 km/h (0 Bft) 100,00 %
02.09.2023 22:56 18,1 C 16,7 C 13,3 C 93 % 1024,3 hPa 0,0 l/m 0 min 0 min 0 W/m 0,0 km/h (0 Bft) 97,87 %
02.09.2023 22:58 18,1 C 16,7 C 13,3 C 93 % 1024,3 hPa 0,0 l/m 0 min 0 min 0 W/m 0,0 km/h (0 Bft) 100,00 %
02.09.2023 23:00 18,0 C 16,7 C 13,3 C 93 % 1024,3 hPa 0,0 l/m 0 min 0 min 0 W/m 0,0 km/h (0 Bft) 100,00 %
02.09.2023 23:02 18,0 C 16,7 C 13,3 C 93 % 1024,3 hPa 0,0 l/m 0 min 0 min 0 W/m 0,0 km/h (0 Bft) 97,87 %
02.09.2023 23:04 17,9 C 16,7 C 13,3 C 93 % 1024,3 hPa 0,0 l/m 0 min 0 min 0 W/m 0,0 km/h (0 Bft) 100,00 %
02.09.2023 23:06 17,9 C 16,7 C 13,3 C 93 % 1024,3 hPa 0,0 l/m 0 min 0 min 0 W/m 0,0 km/h (0 Bft) 100,00 %
02.09.2023 23:08 17,9 C 16,7 C 13,3 C 94 % 1024,4 hPa 0,0 l/m 0 min 0 min 0 W/m 0,0 km/h (0 Bft) 97,87 %
02.09.2023 23:10 17,9 C 16,7 C 13,3 C 94 % 1024,4 hPa 0,0 l/m 0 min 0 min 0 W/m 0,0 km/h (0 Bft) 100,00 %
02.09.2023 23:12 17,9 C 16,7 C 13,3 C 93 % 1024,4 hPa 0,0 l/m 0 min 0 min 0 W/m 0,0 km/h (0 Bft) 100,00 %
02.09.2023 23:14 17,8 C 16,7 C 13,3 C 94 % 1024,4 hPa 0,0 l/m 0 min 0 min 0 W/m 0,0 km/h (0 Bft) 97,87 %
02.09.2023 23:16 17,8 C 16,7 C 13,3 C 94 % 1024,5 hPa 0,0 l/m 0 min 0 min 0 W/m 0,0 km/h (0 Bft) 97,83 %
02.09.2023 23:18 17,8 C 16,1 C 13,3 C 94 % 1024,6 hPa 0,0 l/m 0 min 0 min 0 W/m 0,0 km/h (0 Bft) 100,00 %
02.09.2023 23:20 17,8 C 16,1 C 12,8 C 94 % 1024,6 hPa 0,0 l/m 0 min 0 min 0 W/m 0,0 km/h (0 Bft) 97,87 %
02.09.2023 23:22 17,7 C 16,1 C 12,8 C 94 % 1024,6 hPa 0,0 l/m 0 min 0 min 0 W/m 0,0 km/h (0 Bft) 100,00 %
02.09.2023 23:24 17,7 C 16,1 C 12,8 C 94 % 1024,6 hPa 0,0 l/m 0 min 0 min 0 W/m 0,0 km/h (0 Bft) 95,74 %
02.09.2023 23:26 17,7 C 16,1 C 12,8 C 94 % 1024,6 hPa 0,0 l/m 0 min 0 min 0 W/m 0,0 km/h (0 Bft) 95,74 %
02.09.2023 23:28 17,7 C 16,1 C 12,8 C 94 % 1024,6 hPa 0,0 l/m 0 min 0 min 0 W/m 0,0 km/h (0 Bft) 97,87 %
02.09.2023 23:30 17,7 C 16,1 C 12,8 C 94 % 1024,6 hPa 0,0 l/m 0 min 0 min 0 W/m 0,0 km/h (0 Bft) 97,83 %
02.09.2023 23:32 17,6 C 16,1 C 12,8 C 94 % 1024,6 hPa 0,0 l/m 0 min 0 min 0 W/m 0,0 km/h (0 Bft) 93,62 %
02.09.2023 23:34 17,6 C 16,1 C 12,8 C 94 % 1024,7 hPa 0,0 l/m 0 min 0 min 0 W/m 0,0 km/h (0 Bft) 93,62 %
02.09.2023 23:36 17,6 C 16,1 C 12,8 C 94 % 1024,7 hPa 0,0 l/m 0 min 0 min 0 W/m 0,0 km/h (0 Bft) 93,62 %
02.09.2023 23:38 17,6 C 16,1 C 12,8 C 94 % 1024,7 hPa 0,0 l/m 0 min 0 min 0 W/m 0,0 km/h (0 Bft) 91,49 %
02.09.2023 23:40 17,5 C 16,1 C 12,8 C 94 % 1024,7 hPa 0,0 l/m 0 min 0 min 0 W/m 0,0 km/h (0 Bft) 93,62 %
02.09.2023 23:42 17,4 C 16,1 C 12,8 C 94 % 1024,7 hPa 0,0 l/m 0 min 0 min 0 W/m 0,0 km/h (0 Bft) 93,62 %
02.09.2023 23:44 17,4 C 16,1 C 12,8 C 94 % 1024,8 hPa 0,0 l/m 0 min 0 min 0 W/m 0,0 km/h (0 Bft) 93,48 %
02.09.2023 23:46 17,4 C 16,1 C 12,8 C 94 % 1024,8 hPa 0,0 l/m 0 min 0 min 0 W/m 0,0 km/h (0 Bft) 93,62 %
02.09.2023 23:48 17,4 C 16,1 C 12,8 C 94 % 1024,8 hPa 0,0 l/m 0 min 0 min 0 W/m 0,0 km/h (0 Bft) 95,74 %
02.09.2023 23:50 17,3 C 16,1 C 12,8 C 94 % 1024,9 hPa 0,0 l/m 0 min 0 min 0 W/m 0,0 km/h (0 Bft) 91,49 %
02.09.2023 23:52 17,3 C 16,1 C 12,8 C 94 % 1024,9 hPa 0,0 l/m 0 min 0 min 0 W/m 0,0 km/h (0 Bft) 93,62 %
02.09.2023 23:54 17,3 C 16,1 C 12,8 C 94 % 1025,0 hPa 0,0 l/m 0 min 0 min 0 W/m 0,0 km/h (0 Bft) 91,49 %
02.09.2023 23:56 17,3 C 16,1 C 12,8 C 94 % 1024,9 hPa 0,0 l/m 0 min 0 min 0 W/m 0,0 km/h (0 Bft) 93,62 %
02.09.2023 23:58 17,3 C 16,1 C 12,8 C 95 % 1024,9 hPa 0,0 l/m 0 min 0 min 0 W/m 0,0 km/h (0 Bft) 95,74 %
_ Min-Zeit 07:06 05:44 06:00 16:10 00:00 - - - - 00:38 21:56
Minimum _ 14,4 C 13,9 C 11,1 C 75 % 1016,7 hPa - - - - 0,0 km/h (0 Bft) 89,36 %
_ Max-Zeit 16:10 18:28 15:44 06:28 23:54 00:00 12:08 00:00 15:32 05:40 00:28
Maximum _ 24,6 C 27,2 C 20,0 C 99 % 1025,0 hPa 0,0 l/m 4 min 0 min 843 W/m 16,1 km/h
S-SO (3 Bft)
100,00 %
Durchschnitt _ 18,7 C 18,6 C 14,8 C 92 % 1020,3 hPa #0,0 l/m #5:02 h #0 min. 244 W/m 4,2 km/h (1 Bft) 97,48 %
© 2023 W. Hausmann